<?xml version="1.0" encoding="UTF-8" standalone="no" ?>
<gpx xmlns="http://www.topografix.com/GPX/1/1" xmlns:xsi="http://www.w3.org/2001/XMLSchema-instance" xsi:schemaLocation="http://www.topografix.com/GPX/1/1 http://www.topografix.com/GPX/1/1/gpx.xsd" version="1.1" creator="VisuGPX - https://www.visugpx.com">
  <metadata>
    <name>pr2bis randonnees desaignes</name>
    <desc><![CDATA[attention chien méchant a coution en liberté]]></desc>
  </metadata>
  <trk>
    <name><![CDATA[Tracé 1 nov. 2015 10:08:15]]></name>
    <trkseg>
    </trkseg>
      <trkpt lat="44.99556" lon="4.51675">
        <ele>401</ele>
        <time>2015-11-01T09:08:45Z</time>
      </trkpt>
      <trkpt lat="44.9956" lon="4.51686">
        <ele>406</ele>
        <time>2015-11-01T09:09:22Z</time>
      </trkpt>
      <trkpt lat="44.99565" lon="4.51692">
        <ele>407</ele>
        <time>2015-11-01T09:09:29Z</time>
      </trkpt>
      <trkpt lat="44.99574" lon="4.51703">
        <ele>406</ele>
        <time>2015-11-01T09:09:33Z</time>
      </trkpt>
      <trkpt lat="44.99582" lon="4.51698">
        <ele>396</ele>
        <time>2015-11-01T09:09:41Z</time>
      </trkpt>
      <trkpt lat="44.99579" lon="4.51685">
        <ele>396</ele>
        <time>2015-11-01T09:09:44Z</time>
      </trkpt>
      <trkpt lat="44.99583" lon="4.51675">
        <ele>392</ele>
        <time>2015-11-01T09:09:51Z</time>
      </trkpt>
      <trkpt lat="44.99618" lon="4.51667">
        <ele>389</ele>
        <time>2015-11-01T09:09:56Z</time>
      </trkpt>
      <trkpt lat="44.99628" lon="4.51662">
        <ele>387</ele>
        <time>2015-11-01T09:09:59Z</time>
      </trkpt>
      <trkpt lat="44.99633" lon="4.51652">
        <ele>383</ele>
        <time>2015-11-01T09:10:06Z</time>
      </trkpt>
      <trkpt lat="44.99627" lon="4.51643">
        <ele>378</ele>
        <time>2015-11-01T09:10:19Z</time>
      </trkpt>
      <trkpt lat="44.99635" lon="4.51645">
        <ele>376</ele>
        <time>2015-11-01T09:10:38Z</time>
      </trkpt>
      <trkpt lat="44.99644" lon="4.51645">
        <ele>375</ele>
        <time>2015-11-01T09:10:43Z</time>
      </trkpt>
      <trkpt lat="44.99651" lon="4.51649">
        <ele>374</ele>
        <time>2015-11-01T09:10:48Z</time>
      </trkpt>
      <trkpt lat="44.99653" lon="4.51658">
        <ele>373</ele>
        <time>2015-11-01T09:11:01Z</time>
      </trkpt>
      <trkpt lat="44.9966" lon="4.51666">
        <ele>373</ele>
        <time>2015-11-01T09:11:07Z</time>
      </trkpt>
      <trkpt lat="44.99666" lon="4.51666">
        <ele>373</ele>
        <time>2015-11-01T09:11:15Z</time>
      </trkpt>
      <trkpt lat="44.99687" lon="4.51669">
        <ele>374</ele>
        <time>2015-11-01T09:11:19Z</time>
      </trkpt>
      <trkpt lat="44.99693" lon="4.51667">
        <ele>376</ele>
        <time>2015-11-01T09:11:25Z</time>
      </trkpt>
      <trkpt lat="44.997" lon="4.51669">
        <ele>376</ele>
        <time>2015-11-01T09:11:36Z</time>
      </trkpt>
      <trkpt lat="44.99709" lon="4.51663">
        <ele>376</ele>
        <time>2015-11-01T09:11:39Z</time>
      </trkpt>
      <trkpt lat="44.99714" lon="4.51655">
        <ele>376</ele>
        <time>2015-11-01T09:11:45Z</time>
      </trkpt>
      <trkpt lat="44.99721" lon="4.51656">
        <ele>376</ele>
        <time>2015-11-01T09:11:51Z</time>
      </trkpt>
      <trkpt lat="44.99729" lon="4.51652">
        <ele>376</ele>
        <time>2015-11-01T09:11:59Z</time>
      </trkpt>
      <trkpt lat="44.99734" lon="4.51649">
        <ele>376</ele>
        <time>2015-11-01T09:12:04Z</time>
      </trkpt>
      <trkpt lat="44.99741" lon="4.51643">
        <ele>376</ele>
        <time>2015-11-01T09:12:09Z</time>
      </trkpt>
      <trkpt lat="44.99747" lon="4.51639">
        <ele>376</ele>
        <time>2015-11-01T09:12:13Z</time>
      </trkpt>
      <trkpt lat="44.99756" lon="4.51635">
        <ele>376</ele>
        <time>2015-11-01T09:12:17Z</time>
      </trkpt>
      <trkpt lat="44.99759" lon="4.51626">
        <ele>376</ele>
        <time>2015-11-01T09:12:25Z</time>
      </trkpt>
      <trkpt lat="44.99766" lon="4.51619">
        <ele>376</ele>
        <time>2015-11-01T09:12:30Z</time>
      </trkpt>
      <trkpt lat="44.99773" lon="4.51616">
        <ele>376</ele>
        <time>2015-11-01T09:12:35Z</time>
      </trkpt>
      <trkpt lat="44.9978" lon="4.5161">
        <ele>377</ele>
        <time>2015-11-01T09:12:39Z</time>
      </trkpt>
      <trkpt lat="44.99789" lon="4.51593">
        <ele>378</ele>
        <time>2015-11-01T09:12:43Z</time>
      </trkpt>
      <trkpt lat="44.99796" lon="4.51587">
        <ele>379</ele>
        <time>2015-11-01T09:12:55Z</time>
      </trkpt>
      <trkpt lat="44.99803" lon="4.51589">
        <ele>379</ele>
        <time>2015-11-01T09:13:04Z</time>
      </trkpt>
      <trkpt lat="44.99815" lon="4.51596">
        <ele>379</ele>
        <time>2015-11-01T09:13:08Z</time>
      </trkpt>
      <trkpt lat="44.99826" lon="4.516">
        <ele>380</ele>
        <time>2015-11-01T09:13:12Z</time>
      </trkpt>
      <trkpt lat="44.99832" lon="4.51602">
        <ele>380</ele>
        <time>2015-11-01T09:13:15Z</time>
      </trkpt>
      <trkpt lat="44.99838" lon="4.51607">
        <ele>381</ele>
        <time>2015-11-01T09:13:21Z</time>
      </trkpt>
      <trkpt lat="44.99846" lon="4.51613">
        <ele>382</ele>
        <time>2015-11-01T09:13:29Z</time>
      </trkpt>
      <trkpt lat="44.99854" lon="4.51618">
        <ele>382</ele>
        <time>2015-11-01T09:13:37Z</time>
      </trkpt>
      <trkpt lat="44.99862" lon="4.51623">
        <ele>382</ele>
        <time>2015-11-01T09:13:49Z</time>
      </trkpt>
      <trkpt lat="44.99869" lon="4.51624">
        <ele>382</ele>
        <time>2015-11-01T09:13:53Z</time>
      </trkpt>
      <trkpt lat="44.99885" lon="4.51634">
        <ele>382</ele>
        <time>2015-11-01T09:13:58Z</time>
      </trkpt>
      <trkpt lat="44.9989" lon="4.5164">
        <ele>384</ele>
        <time>2015-11-01T09:14:07Z</time>
      </trkpt>
      <trkpt lat="44.99897" lon="4.51646">
        <ele>386</ele>
        <time>2015-11-01T09:14:15Z</time>
      </trkpt>
      <trkpt lat="44.99904" lon="4.51652">
        <ele>387</ele>
        <time>2015-11-01T09:14:21Z</time>
      </trkpt>
      <trkpt lat="44.99912" lon="4.51655">
        <ele>387</ele>
        <time>2015-11-01T09:14:31Z</time>
      </trkpt>
      <trkpt lat="44.99924" lon="4.51661">
        <ele>386</ele>
        <time>2015-11-01T09:14:45Z</time>
      </trkpt>
      <trkpt lat="44.99933" lon="4.51664">
        <ele>386</ele>
        <time>2015-11-01T09:14:51Z</time>
      </trkpt>
      <trkpt lat="44.99939" lon="4.51664">
        <ele>386</ele>
        <time>2015-11-01T09:14:55Z</time>
      </trkpt>
      <trkpt lat="44.99943" lon="4.51653">
        <ele>385</ele>
        <time>2015-11-01T09:15:00Z</time>
      </trkpt>
      <trkpt lat="44.9995" lon="4.51645">
        <ele>385</ele>
        <time>2015-11-01T09:15:05Z</time>
      </trkpt>
      <trkpt lat="44.99953" lon="4.51636">
        <ele>385</ele>
        <time>2015-11-01T09:15:10Z</time>
      </trkpt>
      <trkpt lat="44.99959" lon="4.51628">
        <ele>385</ele>
        <time>2015-11-01T09:15:15Z</time>
      </trkpt>
      <trkpt lat="44.99966" lon="4.51623">
        <ele>386</ele>
        <time>2015-11-01T09:15:22Z</time>
      </trkpt>
      <trkpt lat="44.99972" lon="4.51617">
        <ele>385</ele>
        <time>2015-11-01T09:15:28Z</time>
      </trkpt>
      <trkpt lat="44.99976" lon="4.51609">
        <ele>386</ele>
        <time>2015-11-01T09:15:33Z</time>
      </trkpt>
      <trkpt lat="44.99983" lon="4.51606">
        <ele>387</ele>
        <time>2015-11-01T09:15:39Z</time>
      </trkpt>
      <trkpt lat="44.99989" lon="4.51587">
        <ele>390</ele>
        <time>2015-11-01T09:15:44Z</time>
      </trkpt>
      <trkpt lat="44.99994" lon="4.51579">
        <ele>393</ele>
        <time>2015-11-01T09:15:49Z</time>
      </trkpt>
      <trkpt lat="45" lon="4.51572">
        <ele>395</ele>
        <time>2015-11-01T09:15:55Z</time>
      </trkpt>
      <trkpt lat="45.00008" lon="4.51568">
        <ele>395</ele>
        <time>2015-11-01T09:16:01Z</time>
      </trkpt>
      <trkpt lat="45.00012" lon="4.51561">
        <ele>396</ele>
        <time>2015-11-01T09:16:07Z</time>
      </trkpt>
      <trkpt lat="45.0002" lon="4.51558">
        <ele>395</ele>
        <time>2015-11-01T09:16:19Z</time>
      </trkpt>
      <trkpt lat="45.00026" lon="4.51549">
        <ele>399</ele>
        <time>2015-11-01T09:19:07Z</time>
      </trkpt>
      <trkpt lat="45.00037" lon="4.51539">
        <ele>399</ele>
        <time>2015-11-01T09:19:11Z</time>
      </trkpt>
      <trkpt lat="45.00045" lon="4.51533">
        <ele>390</ele>
        <time>2015-11-01T09:19:19Z</time>
      </trkpt>
      <trkpt lat="45.00049" lon="4.51524">
        <ele>384</ele>
        <time>2015-11-01T09:19:27Z</time>
      </trkpt>
      <trkpt lat="45.00055" lon="4.51516">
        <ele>381</ele>
        <time>2015-11-01T09:19:33Z</time>
      </trkpt>
      <trkpt lat="45.00063" lon="4.51512">
        <ele>376</ele>
        <time>2015-11-01T09:19:41Z</time>
      </trkpt>
      <trkpt lat="45.00067" lon="4.51505">
        <ele>373</ele>
        <time>2015-11-01T09:19:49Z</time>
      </trkpt>
      <trkpt lat="45.00072" lon="4.515">
        <ele>373</ele>
        <time>2015-11-01T09:19:52Z</time>
      </trkpt>
      <trkpt lat="45.00074" lon="4.5149">
        <ele>374</ele>
        <time>2015-11-01T09:19:56Z</time>
      </trkpt>
      <trkpt lat="45.00079" lon="4.51484">
        <ele>374</ele>
        <time>2015-11-01T09:20:01Z</time>
      </trkpt>
      <trkpt lat="45.00086" lon="4.51477">
        <ele>376</ele>
        <time>2015-11-01T09:20:09Z</time>
      </trkpt>
      <trkpt lat="45.00093" lon="4.51474">
        <ele>376</ele>
        <time>2015-11-01T09:20:15Z</time>
      </trkpt>
      <trkpt lat="45.00101" lon="4.51474">
        <ele>376</ele>
        <time>2015-11-01T09:20:22Z</time>
      </trkpt>
      <trkpt lat="45.00107" lon="4.51471">
        <ele>379</ele>
        <time>2015-11-01T09:20:31Z</time>
      </trkpt>
      <trkpt lat="45.00111" lon="4.51469">
        <ele>380</ele>
        <time>2015-11-01T09:20:36Z</time>
      </trkpt>
      <trkpt lat="45.00119" lon="4.51464">
        <ele>380</ele>
        <time>2015-11-01T09:20:45Z</time>
      </trkpt>
      <trkpt lat="45.00126" lon="4.51458">
        <ele>381</ele>
        <time>2015-11-01T09:20:54Z</time>
      </trkpt>
      <trkpt lat="45.00132" lon="4.51454">
        <ele>380</ele>
        <time>2015-11-01T09:21:00Z</time>
      </trkpt>
      <trkpt lat="45.00136" lon="4.51453">
        <ele>380</ele>
        <time>2015-11-01T09:21:05Z</time>
      </trkpt>
      <trkpt lat="45.00141" lon="4.51398">
        <ele>380</ele>
        <time>2015-11-01T09:21:09Z</time>
      </trkpt>
      <trkpt lat="45.00145" lon="4.51389">
        <ele>381</ele>
        <time>2015-11-01T09:21:15Z</time>
      </trkpt>
      <trkpt lat="45.00153" lon="4.5139">
        <ele>382</ele>
        <time>2015-11-01T09:21:20Z</time>
      </trkpt>
      <trkpt lat="45.00161" lon="4.51395">
        <ele>385</ele>
        <time>2015-11-01T09:21:33Z</time>
      </trkpt>
      <trkpt lat="45.00169" lon="4.51392">
        <ele>387</ele>
        <time>2015-11-01T09:21:41Z</time>
      </trkpt>
      <trkpt lat="45.00175" lon="4.51384">
        <ele>388</ele>
        <time>2015-11-01T09:21:48Z</time>
      </trkpt>
      <trkpt lat="45.00179" lon="4.51377">
        <ele>389</ele>
        <time>2015-11-01T09:21:54Z</time>
      </trkpt>
      <trkpt lat="45.00185" lon="4.51368">
        <ele>390</ele>
        <time>2015-11-01T09:22:00Z</time>
      </trkpt>
      <trkpt lat="45.00193" lon="4.51365">
        <ele>391</ele>
        <time>2015-11-01T09:22:06Z</time>
      </trkpt>
      <trkpt lat="45.002" lon="4.51357">
        <ele>392</ele>
        <time>2015-11-01T09:22:14Z</time>
      </trkpt>
      <trkpt lat="45.00206" lon="4.51349">
        <ele>393</ele>
        <time>2015-11-01T09:22:21Z</time>
      </trkpt>
      <trkpt lat="45.00211" lon="4.51344">
        <ele>395</ele>
        <time>2015-11-01T09:22:28Z</time>
      </trkpt>
      <trkpt lat="45.00215" lon="4.51337">
        <ele>396</ele>
        <time>2015-11-01T09:22:34Z</time>
      </trkpt>
      <trkpt lat="45.00222" lon="4.51331">
        <ele>396</ele>
        <time>2015-11-01T09:22:38Z</time>
      </trkpt>
      <trkpt lat="45.0023" lon="4.51329">
        <ele>397</ele>
        <time>2015-11-01T09:22:41Z</time>
      </trkpt>
      <trkpt lat="45.00238" lon="4.51325">
        <ele>398</ele>
        <time>2015-11-01T09:22:47Z</time>
      </trkpt>
      <trkpt lat="45.00244" lon="4.51318">
        <ele>401</ele>
        <time>2015-11-01T09:22:58Z</time>
      </trkpt>
      <trkpt lat="45.00252" lon="4.51313">
        <ele>401</ele>
        <time>2015-11-01T09:23:02Z</time>
      </trkpt>
      <trkpt lat="45.0026" lon="4.51308">
        <ele>403</ele>
        <time>2015-11-01T09:23:11Z</time>
      </trkpt>
      <trkpt lat="45.00266" lon="4.51308">
        <ele>405</ele>
        <time>2015-11-01T09:23:22Z</time>
      </trkpt>
      <trkpt lat="45.00274" lon="4.51308">
        <ele>405</ele>
        <time>2015-11-01T09:23:29Z</time>
      </trkpt>
      <trkpt lat="45.00281" lon="4.51312">
        <ele>405</ele>
        <time>2015-11-01T09:23:38Z</time>
      </trkpt>
      <trkpt lat="45.00289" lon="4.51316">
        <ele>405</ele>
        <time>2015-11-01T09:23:51Z</time>
      </trkpt>
      <trkpt lat="45.00298" lon="4.5132">
        <ele>406</ele>
        <time>2015-11-01T09:23:56Z</time>
      </trkpt>
      <trkpt lat="45.00305" lon="4.51324">
        <ele>405</ele>
        <time>2015-11-01T09:24:01Z</time>
      </trkpt>
      <trkpt lat="45.00306" lon="4.51336">
        <ele>405</ele>
        <time>2015-11-01T09:24:08Z</time>
      </trkpt>
      <trkpt lat="45.00305" lon="4.51345">
        <ele>406</ele>
        <time>2015-11-01T09:24:14Z</time>
      </trkpt>
      <trkpt lat="45.00304" lon="4.51356">
        <ele>406</ele>
        <time>2015-11-01T09:24:21Z</time>
      </trkpt>
      <trkpt lat="45.00305" lon="4.51366">
        <ele>406</ele>
        <time>2015-11-01T09:24:31Z</time>
      </trkpt>
      <trkpt lat="45.00305" lon="4.51378">
        <ele>406</ele>
        <time>2015-11-01T09:24:37Z</time>
      </trkpt>
      <trkpt lat="45.00307" lon="4.51389">
        <ele>406</ele>
        <time>2015-11-01T09:24:44Z</time>
      </trkpt>
      <trkpt lat="45.00311" lon="4.51399">
        <ele>406</ele>
        <time>2015-11-01T09:24:50Z</time>
      </trkpt>
      <trkpt lat="45.00308" lon="4.5141">
        <ele>405</ele>
        <time>2015-11-01T09:24:56Z</time>
      </trkpt>
      <trkpt lat="45.00308" lon="4.51422">
        <ele>404</ele>
        <time>2015-11-01T09:25:02Z</time>
      </trkpt>
      <trkpt lat="45.00314" lon="4.51425">
        <ele>404</ele>
        <time>2015-11-01T09:25:08Z</time>
      </trkpt>
      <trkpt lat="45.00318" lon="4.51436">
        <ele>403</ele>
        <time>2015-11-01T09:25:14Z</time>
      </trkpt>
      <trkpt lat="45.00319" lon="4.51445">
        <ele>403</ele>
        <time>2015-11-01T09:25:22Z</time>
      </trkpt>
      <trkpt lat="45.00319" lon="4.51458">
        <ele>406</ele>
        <time>2015-11-01T09:25:27Z</time>
      </trkpt>
      <trkpt lat="45.0033" lon="4.51464">
        <ele>407</ele>
        <time>2015-11-01T09:25:32Z</time>
      </trkpt>
      <trkpt lat="45.00339" lon="4.5147">
        <ele>409</ele>
        <time>2015-11-01T09:25:36Z</time>
      </trkpt>
      <trkpt lat="45.00347" lon="4.51468">
        <ele>412</ele>
        <time>2015-11-01T09:25:45Z</time>
      </trkpt>
      <trkpt lat="45.00354" lon="4.51461">
        <ele>414</ele>
        <time>2015-11-01T09:25:56Z</time>
      </trkpt>
      <trkpt lat="45.00359" lon="4.51452">
        <ele>413</ele>
        <time>2015-11-01T09:26:08Z</time>
      </trkpt>
      <trkpt lat="45.00367" lon="4.5145">
        <ele>413</ele>
        <time>2015-11-01T09:26:15Z</time>
      </trkpt>
      <trkpt lat="45.00375" lon="4.51447">
        <ele>413</ele>
        <time>2015-11-01T09:26:23Z</time>
      </trkpt>
      <trkpt lat="45.00383" lon="4.51444">
        <ele>412</ele>
        <time>2015-11-01T09:26:26Z</time>
      </trkpt>
      <trkpt lat="45.00389" lon="4.51445">
        <ele>412</ele>
        <time>2015-11-01T09:26:30Z</time>
      </trkpt>
      <trkpt lat="45.00398" lon="4.51442">
        <ele>411</ele>
        <time>2015-11-01T09:26:38Z</time>
      </trkpt>
      <trkpt lat="45.00402" lon="4.51437">
        <ele>411</ele>
        <time>2015-11-01T09:26:43Z</time>
      </trkpt>
      <trkpt lat="45.00408" lon="4.51432">
        <ele>410</ele>
        <time>2015-11-01T09:26:48Z</time>
      </trkpt>
      <trkpt lat="45.00414" lon="4.51423">
        <ele>409</ele>
        <time>2015-11-01T09:26:57Z</time>
      </trkpt>
      <trkpt lat="45.0042" lon="4.51421">
        <ele>409</ele>
        <time>2015-11-01T09:27:00Z</time>
      </trkpt>
      <trkpt lat="45.00429" lon="4.5142">
        <ele>408</ele>
        <time>2015-11-01T09:27:05Z</time>
      </trkpt>
      <trkpt lat="45.00434" lon="4.5142">
        <ele>408</ele>
        <time>2015-11-01T09:27:10Z</time>
      </trkpt>
      <trkpt lat="45.00443" lon="4.51414">
        <ele>408</ele>
        <time>2015-11-01T09:27:14Z</time>
      </trkpt>
      <trkpt lat="45.00445" lon="4.51405">
        <ele>408</ele>
        <time>2015-11-01T09:27:18Z</time>
      </trkpt>
      <trkpt lat="45.00444" lon="4.51393">
        <ele>407</ele>
        <time>2015-11-01T09:27:24Z</time>
      </trkpt>
      <trkpt lat="45.00448" lon="4.51382">
        <ele>407</ele>
        <time>2015-11-01T09:27:31Z</time>
      </trkpt>
      <trkpt lat="45.00452" lon="4.5137">
        <ele>407</ele>
        <time>2015-11-01T09:27:36Z</time>
      </trkpt>
      <trkpt lat="45.0046" lon="4.51377">
        <ele>411</ele>
        <time>2015-11-01T09:28:08Z</time>
      </trkpt>
      <trkpt lat="45.00459" lon="4.51388">
        <ele>412</ele>
        <time>2015-11-01T09:28:16Z</time>
      </trkpt>
      <trkpt lat="45.00458" lon="4.514">
        <ele>412</ele>
        <time>2015-11-01T09:28:24Z</time>
      </trkpt>
      <trkpt lat="45.00457" lon="4.51406">
        <ele>414</ele>
        <time>2015-11-01T09:28:37Z</time>
      </trkpt>
      <trkpt lat="45.00452" lon="4.51417">
        <ele>414</ele>
        <time>2015-11-01T09:28:42Z</time>
      </trkpt>
      <trkpt lat="45.0045" lon="4.51424">
        <ele>414</ele>
        <time>2015-11-01T09:28:56Z</time>
      </trkpt>
      <trkpt lat="45.00441" lon="4.51461">
        <ele>417</ele>
        <time>2015-11-01T09:29:00Z</time>
      </trkpt>
      <trkpt lat="45.0044" lon="4.51471">
        <ele>418</ele>
        <time>2015-11-01T09:29:04Z</time>
      </trkpt>
      <trkpt lat="45.00439" lon="4.51483">
        <ele>418</ele>
        <time>2015-11-01T09:29:25Z</time>
      </trkpt>
      <trkpt lat="45.00437" lon="4.5151">
        <ele>421</ele>
        <time>2015-11-01T09:29:30Z</time>
      </trkpt>
      <trkpt lat="45.00435" lon="4.5152">
        <ele>422</ele>
        <time>2015-11-01T09:29:40Z</time>
      </trkpt>
      <trkpt lat="45.00439" lon="4.51529">
        <ele>424</ele>
        <time>2015-11-01T09:29:45Z</time>
      </trkpt>
      <trkpt lat="45.00438" lon="4.5154">
        <ele>425</ele>
        <time>2015-11-01T09:29:51Z</time>
      </trkpt>
      <trkpt lat="45.00437" lon="4.51545">
        <ele>426</ele>
        <time>2015-11-01T09:29:53Z</time>
      </trkpt>
      <trkpt lat="45.00434" lon="4.51557">
        <ele>427</ele>
        <time>2015-11-01T09:30:01Z</time>
      </trkpt>
      <trkpt lat="45.00429" lon="4.51566">
        <ele>429</ele>
        <time>2015-11-01T09:30:09Z</time>
      </trkpt>
      <trkpt lat="45.00426" lon="4.5157">
        <ele>430</ele>
        <time>2015-11-01T09:30:17Z</time>
      </trkpt>
      <trkpt lat="45.00424" lon="4.51583">
        <ele>431</ele>
        <time>2015-11-01T09:30:29Z</time>
      </trkpt>
      <trkpt lat="45.00424" lon="4.5159">
        <ele>431</ele>
        <time>2015-11-01T09:30:33Z</time>
      </trkpt>
      <trkpt lat="45.00419" lon="4.51632">
        <ele>436</ele>
        <time>2015-11-01T09:31:00Z</time>
      </trkpt>
      <trkpt lat="45.00418" lon="4.5164">
        <ele>437</ele>
        <time>2015-11-01T09:31:04Z</time>
      </trkpt>
      <trkpt lat="45.00416" lon="4.51648">
        <ele>438</ele>
        <time>2015-11-01T09:31:26Z</time>
      </trkpt>
      <trkpt lat="45.00407" lon="4.51657">
        <ele>441</ele>
        <time>2015-11-01T09:31:31Z</time>
      </trkpt>
      <trkpt lat="45.00402" lon="4.51664">
        <ele>442</ele>
        <time>2015-11-01T09:31:37Z</time>
      </trkpt>
      <trkpt lat="45.00396" lon="4.51668">
        <ele>442</ele>
        <time>2015-11-01T09:31:43Z</time>
      </trkpt>
      <trkpt lat="45.00387" lon="4.5167">
        <ele>443</ele>
        <time>2015-11-01T09:31:48Z</time>
      </trkpt>
      <trkpt lat="45.00381" lon="4.51669">
        <ele>444</ele>
        <time>2015-11-01T09:31:55Z</time>
      </trkpt>
      <trkpt lat="45.00373" lon="4.51667">
        <ele>445</ele>
        <time>2015-11-01T09:32:04Z</time>
      </trkpt>
      <trkpt lat="45.00366" lon="4.51664">
        <ele>446</ele>
        <time>2015-11-01T09:32:08Z</time>
      </trkpt>
      <trkpt lat="45.00359" lon="4.51669">
        <ele>449</ele>
        <time>2015-11-01T09:32:13Z</time>
      </trkpt>
      <trkpt lat="45.00348" lon="4.51658">
        <ele>457</ele>
        <time>2015-11-01T09:32:17Z</time>
      </trkpt>
      <trkpt lat="45.00339" lon="4.51655">
        <ele>466</ele>
        <time>2015-11-01T09:32:25Z</time>
      </trkpt>
      <trkpt lat="45.00331" lon="4.51655">
        <ele>471</ele>
        <time>2015-11-01T09:32:33Z</time>
      </trkpt>
      <trkpt lat="45.00324" lon="4.51662">
        <ele>475</ele>
        <time>2015-11-01T09:32:43Z</time>
      </trkpt>
      <trkpt lat="45.00317" lon="4.51665">
        <ele>477</ele>
        <time>2015-11-01T09:32:55Z</time>
      </trkpt>
      <trkpt lat="45.00312" lon="4.51672">
        <ele>477</ele>
        <time>2015-11-01T09:32:59Z</time>
      </trkpt>
      <trkpt lat="45.00305" lon="4.51681">
        <ele>478</ele>
        <time>2015-11-01T09:33:04Z</time>
      </trkpt>
      <trkpt lat="45.00298" lon="4.51683">
        <ele>478</ele>
        <time>2015-11-01T09:33:11Z</time>
      </trkpt>
      <trkpt lat="45.0029" lon="4.51677">
        <ele>479</ele>
        <time>2015-11-01T09:33:21Z</time>
      </trkpt>
      <trkpt lat="45.00283" lon="4.51669">
        <ele>480</ele>
        <time>2015-11-01T09:33:27Z</time>
      </trkpt>
      <trkpt lat="45.00276" lon="4.51664">
        <ele>481</ele>
        <time>2015-11-01T09:33:35Z</time>
      </trkpt>
      <trkpt lat="45.00269" lon="4.51656">
        <ele>481</ele>
        <time>2015-11-01T09:33:43Z</time>
      </trkpt>
      <trkpt lat="45.00264" lon="4.51646">
        <ele>483</ele>
        <time>2015-11-01T09:33:55Z</time>
      </trkpt>
      <trkpt lat="45.00257" lon="4.51641">
        <ele>484</ele>
        <time>2015-11-01T09:34:02Z</time>
      </trkpt>
      <trkpt lat="45.0025" lon="4.51641">
        <ele>485</ele>
        <time>2015-11-01T09:34:09Z</time>
      </trkpt>
      <trkpt lat="45.00243" lon="4.51646">
        <ele>486</ele>
        <time>2015-11-01T09:34:15Z</time>
      </trkpt>
      <trkpt lat="45.00235" lon="4.51646">
        <ele>487</ele>
        <time>2015-11-01T09:34:21Z</time>
      </trkpt>
      <trkpt lat="45.00227" lon="4.51652">
        <ele>488</ele>
        <time>2015-11-01T09:34:27Z</time>
      </trkpt>
      <trkpt lat="45.00219" lon="4.51654">
        <ele>489</ele>
        <time>2015-11-01T09:34:34Z</time>
      </trkpt>
      <trkpt lat="45.00211" lon="4.51655">
        <ele>492</ele>
        <time>2015-11-01T09:34:47Z</time>
      </trkpt>
      <trkpt lat="45.00203" lon="4.51658">
        <ele>493</ele>
        <time>2015-11-01T09:34:55Z</time>
      </trkpt>
      <trkpt lat="45.00196" lon="4.51662">
        <ele>495</ele>
        <time>2015-11-01T09:35:00Z</time>
      </trkpt>
      <trkpt lat="45.00192" lon="4.5167">
        <ele>496</ele>
        <time>2015-11-01T09:35:04Z</time>
      </trkpt>
      <trkpt lat="45.00186" lon="4.51679">
        <ele>497</ele>
        <time>2015-11-01T09:35:09Z</time>
      </trkpt>
      <trkpt lat="45.00179" lon="4.51687">
        <ele>499</ele>
        <time>2015-11-01T09:35:15Z</time>
      </trkpt>
      <trkpt lat="45.00171" lon="4.51691">
        <ele>503</ele>
        <time>2015-11-01T09:35:25Z</time>
      </trkpt>
      <trkpt lat="45.00164" lon="4.51698">
        <ele>504</ele>
        <time>2015-11-01T09:35:30Z</time>
      </trkpt>
      <trkpt lat="45.00162" lon="4.51704">
        <ele>505</ele>
        <time>2015-11-01T09:35:34Z</time>
      </trkpt>
      <trkpt lat="45.00157" lon="4.51713">
        <ele>507</ele>
        <time>2015-11-01T09:35:38Z</time>
      </trkpt>
      <trkpt lat="45.00152" lon="4.51722">
        <ele>508</ele>
        <time>2015-11-01T09:35:43Z</time>
      </trkpt>
      <trkpt lat="45.00147" lon="4.51732">
        <ele>510</ele>
        <time>2015-11-01T09:35:51Z</time>
      </trkpt>
      <trkpt lat="45.00145" lon="4.51742">
        <ele>512</ele>
        <time>2015-11-01T09:35:58Z</time>
      </trkpt>
      <trkpt lat="45.00142" lon="4.51751">
        <ele>513</ele>
        <time>2015-11-01T09:36:02Z</time>
      </trkpt>
      <trkpt lat="45.00138" lon="4.51762">
        <ele>515</ele>
        <time>2015-11-01T09:36:10Z</time>
      </trkpt>
      <trkpt lat="45.00136" lon="4.51768">
        <ele>516</ele>
        <time>2015-11-01T09:36:15Z</time>
      </trkpt>
      <trkpt lat="45.00132" lon="4.51781">
        <ele>518</ele>
        <time>2015-11-01T09:36:18Z</time>
      </trkpt>
      <trkpt lat="45.00131" lon="4.51793">
        <ele>520</ele>
        <time>2015-11-01T09:36:32Z</time>
      </trkpt>
      <trkpt lat="45.00131" lon="4.51805">
        <ele>520</ele>
        <time>2015-11-01T09:36:43Z</time>
      </trkpt>
      <trkpt lat="45.00126" lon="4.51812">
        <ele>520</ele>
        <time>2015-11-01T09:36:48Z</time>
      </trkpt>
      <trkpt lat="45.00122" lon="4.51821">
        <ele>520</ele>
        <time>2015-11-01T09:36:53Z</time>
      </trkpt>
      <trkpt lat="45.00117" lon="4.5183">
        <ele>521</ele>
        <time>2015-11-01T09:37:00Z</time>
      </trkpt>
      <trkpt lat="45.00113" lon="4.51841">
        <ele>521</ele>
        <time>2015-11-01T09:37:09Z</time>
      </trkpt>
      <trkpt lat="45.00109" lon="4.5185">
        <ele>522</ele>
        <time>2015-11-01T09:37:23Z</time>
      </trkpt>
      <trkpt lat="45.00105" lon="4.51858">
        <ele>523</ele>
        <time>2015-11-01T09:37:27Z</time>
      </trkpt>
      <trkpt lat="45.001" lon="4.51864">
        <ele>523</ele>
        <time>2015-11-01T09:37:33Z</time>
      </trkpt>
      <trkpt lat="45.00093" lon="4.51871">
        <ele>523</ele>
        <time>2015-11-01T09:37:39Z</time>
      </trkpt>
      <trkpt lat="45.00093" lon="4.5188">
        <ele>524</ele>
        <time>2015-11-01T09:37:44Z</time>
      </trkpt>
      <trkpt lat="45.00089" lon="4.51889">
        <ele>524</ele>
        <time>2015-11-01T09:37:50Z</time>
      </trkpt>
      <trkpt lat="45.00087" lon="4.519">
        <ele>524</ele>
        <time>2015-11-01T09:37:56Z</time>
      </trkpt>
      <trkpt lat="45.00085" lon="4.51909">
        <ele>524</ele>
        <time>2015-11-01T09:38:01Z</time>
      </trkpt>
      <trkpt lat="45.00083" lon="4.51919">
        <ele>524</ele>
        <time>2015-11-01T09:38:06Z</time>
      </trkpt>
      <trkpt lat="45.00082" lon="4.5193">
        <ele>524</ele>
        <time>2015-11-01T09:38:11Z</time>
      </trkpt>
      <trkpt lat="45.0008" lon="4.51942">
        <ele>524</ele>
        <time>2015-11-01T09:38:15Z</time>
      </trkpt>
      <trkpt lat="45.00077" lon="4.5195">
        <ele>524</ele>
        <time>2015-11-01T09:38:19Z</time>
      </trkpt>
      <trkpt lat="45.00076" lon="4.51962">
        <ele>524</ele>
        <time>2015-11-01T09:38:23Z</time>
      </trkpt>
      <trkpt lat="45.00077" lon="4.51975">
        <ele>523</ele>
        <time>2015-11-01T09:38:27Z</time>
      </trkpt>
      <trkpt lat="45.00082" lon="4.51982">
        <ele>523</ele>
        <time>2015-11-01T09:38:31Z</time>
      </trkpt>
      <trkpt lat="45.00088" lon="4.5199">
        <ele>522</ele>
        <time>2015-11-01T09:38:38Z</time>
      </trkpt>
      <trkpt lat="45.00095" lon="4.51996">
        <ele>522</ele>
        <time>2015-11-01T09:38:49Z</time>
      </trkpt>
      <trkpt lat="45.00101" lon="4.51993">
        <ele>523</ele>
        <time>2015-11-01T09:39:05Z</time>
      </trkpt>
      <trkpt lat="45.00106" lon="4.51985">
        <ele>523</ele>
        <time>2015-11-01T09:39:13Z</time>
      </trkpt>
      <trkpt lat="45.00112" lon="4.51978">
        <ele>524</ele>
        <time>2015-11-01T09:39:21Z</time>
      </trkpt>
      <trkpt lat="45.00117" lon="4.51968">
        <ele>525</ele>
        <time>2015-11-01T09:39:29Z</time>
      </trkpt>
      <trkpt lat="45.00125" lon="4.51963">
        <ele>526</ele>
        <time>2015-11-01T09:39:53Z</time>
      </trkpt>
      <trkpt lat="45.00129" lon="4.51957">
        <ele>527</ele>
        <time>2015-11-01T09:39:53Z</time>
      </trkpt>
      <trkpt lat="45.00137" lon="4.51955">
        <ele>527</ele>
        <time>2015-11-01T09:40:00Z</time>
      </trkpt>
      <trkpt lat="45.00144" lon="4.51958">
        <ele>527</ele>
        <time>2015-11-01T09:40:10Z</time>
      </trkpt>
      <trkpt lat="45.00152" lon="4.5196">
        <ele>527</ele>
        <time>2015-11-01T09:40:18Z</time>
      </trkpt>
      <trkpt lat="45.00161" lon="4.51963">
        <ele>528</ele>
        <time>2015-11-01T09:40:25Z</time>
      </trkpt>
      <trkpt lat="45.00168" lon="4.51964">
        <ele>528</ele>
        <time>2015-11-01T09:40:31Z</time>
      </trkpt>
      <trkpt lat="45.00176" lon="4.51964">
        <ele>528</ele>
        <time>2015-11-01T09:40:37Z</time>
      </trkpt>
      <trkpt lat="45.00185" lon="4.51965">
        <ele>528</ele>
        <time>2015-11-01T09:40:43Z</time>
      </trkpt>
      <trkpt lat="45.00192" lon="4.51966">
        <ele>528</ele>
        <time>2015-11-01T09:40:47Z</time>
      </trkpt>
      <trkpt lat="45.002" lon="4.51969">
        <ele>528</ele>
        <time>2015-11-01T09:40:53Z</time>
      </trkpt>
      <trkpt lat="45.00208" lon="4.5197">
        <ele>528</ele>
        <time>2015-11-01T09:41:00Z</time>
      </trkpt>
      <trkpt lat="45.00214" lon="4.5197">
        <ele>529</ele>
        <time>2015-11-01T09:41:05Z</time>
      </trkpt>
      <trkpt lat="45.00223" lon="4.5197">
        <ele>530</ele>
        <time>2015-11-01T09:41:14Z</time>
      </trkpt>
      <trkpt lat="45.0023" lon="4.51965">
        <ele>532</ele>
        <time>2015-11-01T09:41:23Z</time>
      </trkpt>
      <trkpt lat="45.00239" lon="4.51961">
        <ele>533</ele>
        <time>2015-11-01T09:41:30Z</time>
      </trkpt>
      <trkpt lat="45.00246" lon="4.51954">
        <ele>534</ele>
        <time>2015-11-01T09:41:38Z</time>
      </trkpt>
      <trkpt lat="45.00252" lon="4.51946">
        <ele>535</ele>
        <time>2015-11-01T09:41:46Z</time>
      </trkpt>
      <trkpt lat="45.00258" lon="4.51942">
        <ele>536</ele>
        <time>2015-11-01T09:41:51Z</time>
      </trkpt>
      <trkpt lat="45.00262" lon="4.5194">
        <ele>537</ele>
        <time>2015-11-01T09:41:55Z</time>
      </trkpt>
      <trkpt lat="45.00271" lon="4.51937">
        <ele>538</ele>
        <time>2015-11-01T09:42:04Z</time>
      </trkpt>
      <trkpt lat="45.00276" lon="4.51927">
        <ele>541</ele>
        <time>2015-11-01T09:42:19Z</time>
      </trkpt>
      <trkpt lat="45.00283" lon="4.5192">
        <ele>541</ele>
        <time>2015-11-01T09:42:27Z</time>
      </trkpt>
      <trkpt lat="45.0029" lon="4.51916">
        <ele>541</ele>
        <time>2015-11-01T09:42:37Z</time>
      </trkpt>
      <trkpt lat="45.00297" lon="4.51914">
        <ele>542</ele>
        <time>2015-11-01T09:42:45Z</time>
      </trkpt>
      <trkpt lat="45.00305" lon="4.5191">
        <ele>542</ele>
        <time>2015-11-01T09:42:51Z</time>
      </trkpt>
      <trkpt lat="45.00313" lon="4.51906">
        <ele>542</ele>
        <time>2015-11-01T09:42:59Z</time>
      </trkpt>
      <trkpt lat="45.0032" lon="4.51903">
        <ele>542</ele>
        <time>2015-11-01T09:43:06Z</time>
      </trkpt>
      <trkpt lat="45.00328" lon="4.51897">
        <ele>542</ele>
        <time>2015-11-01T09:43:13Z</time>
      </trkpt>
      <trkpt lat="45.00336" lon="4.51893">
        <ele>542</ele>
        <time>2015-11-01T09:43:19Z</time>
      </trkpt>
      <trkpt lat="45.00343" lon="4.5189">
        <ele>542</ele>
        <time>2015-11-01T09:43:25Z</time>
      </trkpt>
      <trkpt lat="45.00351" lon="4.51887">
        <ele>542</ele>
        <time>2015-11-01T09:43:33Z</time>
      </trkpt>
      <trkpt lat="45.00359" lon="4.51886">
        <ele>542</ele>
        <time>2015-11-01T09:43:39Z</time>
      </trkpt>
      <trkpt lat="45.00366" lon="4.5189">
        <ele>543</ele>
        <time>2015-11-01T09:43:45Z</time>
      </trkpt>
      <trkpt lat="45.00374" lon="4.5189">
        <ele>544</ele>
        <time>2015-11-01T09:43:49Z</time>
      </trkpt>
      <trkpt lat="45.00381" lon="4.51893">
        <ele>546</ele>
        <time>2015-11-01T09:44:10Z</time>
      </trkpt>
      <trkpt lat="45.00387" lon="4.51902">
        <ele>546</ele>
        <time>2015-11-01T09:44:17Z</time>
      </trkpt>
      <trkpt lat="45.00383" lon="4.51912">
        <ele>551</ele>
        <time>2015-11-01T09:45:15Z</time>
      </trkpt>
      <trkpt lat="45.00376" lon="4.51918">
        <ele>551</ele>
        <time>2015-11-01T09:45:25Z</time>
      </trkpt>
      <trkpt lat="45.0037" lon="4.51925">
        <ele>552</ele>
        <time>2015-11-01T09:45:32Z</time>
      </trkpt>
      <trkpt lat="45.00364" lon="4.51932">
        <ele>553</ele>
        <time>2015-11-01T09:45:42Z</time>
      </trkpt>
      <trkpt lat="45.00359" lon="4.51941">
        <ele>554</ele>
        <time>2015-11-01T09:45:46Z</time>
      </trkpt>
      <trkpt lat="45.00356" lon="4.51949">
        <ele>555</ele>
        <time>2015-11-01T09:45:51Z</time>
      </trkpt>
      <trkpt lat="45.00353" lon="4.5196">
        <ele>557</ele>
        <time>2015-11-01T09:45:58Z</time>
      </trkpt>
      <trkpt lat="45.00353" lon="4.51971">
        <ele>558</ele>
        <time>2015-11-01T09:46:06Z</time>
      </trkpt>
      <trkpt lat="45.00351" lon="4.51977">
        <ele>558</ele>
        <time>2015-11-01T09:46:29Z</time>
      </trkpt>
      <trkpt lat="45.00351" lon="4.52023">
        <ele>559</ele>
        <time>2015-11-01T09:46:34Z</time>
      </trkpt>
      <trkpt lat="45.00351" lon="4.52033">
        <ele>559</ele>
        <time>2015-11-01T09:46:38Z</time>
      </trkpt>
      <trkpt lat="45.0035" lon="4.52043">
        <ele>559</ele>
        <time>2015-11-01T09:46:44Z</time>
      </trkpt>
      <trkpt lat="45.00347" lon="4.52055">
        <ele>560</ele>
        <time>2015-11-01T09:46:50Z</time>
      </trkpt>
      <trkpt lat="45.00347" lon="4.52066">
        <ele>560</ele>
        <time>2015-11-01T09:46:57Z</time>
      </trkpt>
      <trkpt lat="45.00349" lon="4.52078">
        <ele>560</ele>
        <time>2015-11-01T09:47:03Z</time>
      </trkpt>
      <trkpt lat="45.0035" lon="4.5209">
        <ele>561</ele>
        <time>2015-11-01T09:47:09Z</time>
      </trkpt>
      <trkpt lat="45.00353" lon="4.52101">
        <ele>561</ele>
        <time>2015-11-01T09:47:15Z</time>
      </trkpt>
      <trkpt lat="45.00354" lon="4.52111">
        <ele>561</ele>
        <time>2015-11-01T09:47:20Z</time>
      </trkpt>
      <trkpt lat="45.00353" lon="4.52122">
        <ele>561</ele>
        <time>2015-11-01T09:47:24Z</time>
      </trkpt>
      <trkpt lat="45.00352" lon="4.52134">
        <ele>561</ele>
        <time>2015-11-01T09:47:29Z</time>
      </trkpt>
      <trkpt lat="45.00352" lon="4.52146">
        <ele>562</ele>
        <time>2015-11-01T09:47:37Z</time>
      </trkpt>
      <trkpt lat="45.0035" lon="4.52158">
        <ele>563</ele>
        <time>2015-11-01T09:47:47Z</time>
      </trkpt>
      <trkpt lat="45.00352" lon="4.5217">
        <ele>563</ele>
        <time>2015-11-01T09:47:55Z</time>
      </trkpt>
      <trkpt lat="45.00355" lon="4.52181">
        <ele>564</ele>
        <time>2015-11-01T09:48:07Z</time>
      </trkpt>
      <trkpt lat="45.00354" lon="4.5219">
        <ele>564</ele>
        <time>2015-11-01T09:48:13Z</time>
      </trkpt>
      <trkpt lat="45.00352" lon="4.52199">
        <ele>564</ele>
        <time>2015-11-01T09:48:19Z</time>
      </trkpt>
      <trkpt lat="45.00352" lon="4.52212">
        <ele>564</ele>
        <time>2015-11-01T09:48:26Z</time>
      </trkpt>
      <trkpt lat="45.00354" lon="4.52224">
        <ele>564</ele>
        <time>2015-11-01T09:48:39Z</time>
      </trkpt>
      <trkpt lat="45.00354" lon="4.52236">
        <ele>564</ele>
        <time>2015-11-01T09:48:45Z</time>
      </trkpt>
      <trkpt lat="45.00354" lon="4.52248">
        <ele>564</ele>
        <time>2015-11-01T09:48:54Z</time>
      </trkpt>
      <trkpt lat="45.00353" lon="4.52258">
        <ele>564</ele>
        <time>2015-11-01T09:49:07Z</time>
      </trkpt>
      <trkpt lat="45.00352" lon="4.52267">
        <ele>564</ele>
        <time>2015-11-01T09:49:12Z</time>
      </trkpt>
      <trkpt lat="45.00349" lon="4.52279">
        <ele>565</ele>
        <time>2015-11-01T09:49:18Z</time>
      </trkpt>
      <trkpt lat="45.00346" lon="4.5229">
        <ele>566</ele>
        <time>2015-11-01T09:49:27Z</time>
      </trkpt>
      <trkpt lat="45.00343" lon="4.52301">
        <ele>567</ele>
        <time>2015-11-01T09:49:34Z</time>
      </trkpt>
      <trkpt lat="45.00342" lon="4.5231">
        <ele>567</ele>
        <time>2015-11-01T09:49:39Z</time>
      </trkpt>
      <trkpt lat="45.00342" lon="4.52322">
        <ele>568</ele>
        <time>2015-11-01T09:49:43Z</time>
      </trkpt>
      <trkpt lat="45.00346" lon="4.52331">
        <ele>569</ele>
        <time>2015-11-01T09:49:50Z</time>
      </trkpt>
      <trkpt lat="45.00349" lon="4.52335">
        <ele>569</ele>
        <time>2015-11-01T09:49:53Z</time>
      </trkpt>
      <trkpt lat="45.00357" lon="4.52343">
        <ele>570</ele>
        <time>2015-11-01T09:49:57Z</time>
      </trkpt>
      <trkpt lat="45.00356" lon="4.52354">
        <ele>571</ele>
        <time>2015-11-01T09:50:09Z</time>
      </trkpt>
      <trkpt lat="45.00357" lon="4.52361">
        <ele>571</ele>
        <time>2015-11-01T09:50:17Z</time>
      </trkpt>
      <trkpt lat="45.00358" lon="4.52373">
        <ele>570</ele>
        <time>2015-11-01T09:50:21Z</time>
      </trkpt>
      <trkpt lat="45.00357" lon="4.52382">
        <ele>569</ele>
        <time>2015-11-01T09:50:27Z</time>
      </trkpt>
      <trkpt lat="45.00357" lon="4.52393">
        <ele>569</ele>
        <time>2015-11-01T09:50:34Z</time>
      </trkpt>
      <trkpt lat="45.00356" lon="4.52403">
        <ele>569</ele>
        <time>2015-11-01T09:50:40Z</time>
      </trkpt>
      <trkpt lat="45.00355" lon="4.52414">
        <ele>569</ele>
        <time>2015-11-01T09:50:47Z</time>
      </trkpt>
      <trkpt lat="45.00354" lon="4.52424">
        <ele>569</ele>
        <time>2015-11-01T09:50:51Z</time>
      </trkpt>
      <trkpt lat="45.00356" lon="4.52432">
        <ele>569</ele>
        <time>2015-11-01T09:50:55Z</time>
      </trkpt>
      <trkpt lat="45.00362" lon="4.52437">
        <ele>569</ele>
        <time>2015-11-01T09:51:03Z</time>
      </trkpt>
      <trkpt lat="45.00377" lon="4.52441">
        <ele>569</ele>
        <time>2015-11-01T09:51:07Z</time>
      </trkpt>
      <trkpt lat="45.00372" lon="4.5245">
        <ele>568</ele>
        <time>2015-11-01T09:51:25Z</time>
      </trkpt>
      <trkpt lat="45.00371" lon="4.52461">
        <ele>568</ele>
        <time>2015-11-01T09:51:33Z</time>
      </trkpt>
      <trkpt lat="45.0037" lon="4.52472">
        <ele>568</ele>
        <time>2015-11-01T09:51:39Z</time>
      </trkpt>
      <trkpt lat="45.00369" lon="4.52482">
        <ele>568</ele>
        <time>2015-11-01T09:51:43Z</time>
      </trkpt>
      <trkpt lat="45.00366" lon="4.52493">
        <ele>568</ele>
        <time>2015-11-01T09:51:47Z</time>
      </trkpt>
      <trkpt lat="45.00367" lon="4.52502">
        <ele>567</ele>
        <time>2015-11-01T09:51:51Z</time>
      </trkpt>
      <trkpt lat="45.00366" lon="4.52514">
        <ele>568</ele>
        <time>2015-11-01T09:51:59Z</time>
      </trkpt>
      <trkpt lat="45.00367" lon="4.52524">
        <ele>567</ele>
        <time>2015-11-01T09:52:03Z</time>
      </trkpt>
      <trkpt lat="45.00368" lon="4.52533">
        <ele>567</ele>
        <time>2015-11-01T09:52:07Z</time>
      </trkpt>
      <trkpt lat="45.00364" lon="4.52544">
        <ele>568</ele>
        <time>2015-11-01T09:52:13Z</time>
      </trkpt>
      <trkpt lat="45.00362" lon="4.52555">
        <ele>568</ele>
        <time>2015-11-01T09:52:19Z</time>
      </trkpt>
      <trkpt lat="45.00361" lon="4.52567">
        <ele>569</ele>
        <time>2015-11-01T09:52:27Z</time>
      </trkpt>
      <trkpt lat="45.00358" lon="4.52577">
        <ele>569</ele>
        <time>2015-11-01T09:52:33Z</time>
      </trkpt>
      <trkpt lat="45.00357" lon="4.52588">
        <ele>568</ele>
        <time>2015-11-01T09:52:41Z</time>
      </trkpt>
      <trkpt lat="45.00355" lon="4.52599">
        <ele>569</ele>
        <time>2015-11-01T09:52:53Z</time>
      </trkpt>
      <trkpt lat="45.00354" lon="4.52609">
        <ele>570</ele>
        <time>2015-11-01T09:53:20Z</time>
      </trkpt>
      <trkpt lat="45.00347" lon="4.52617">
        <ele>572</ele>
        <time>2015-11-01T09:53:45Z</time>
      </trkpt>
      <trkpt lat="45.00345" lon="4.52627">
        <ele>571</ele>
        <time>2015-11-01T09:54:01Z</time>
      </trkpt>
      <trkpt lat="45.00339" lon="4.52633">
        <ele>571</ele>
        <time>2015-11-01T09:54:07Z</time>
      </trkpt>
      <trkpt lat="45.00335" lon="4.52643">
        <ele>571</ele>
        <time>2015-11-01T09:54:13Z</time>
      </trkpt>
      <trkpt lat="45.00331" lon="4.52652">
        <ele>571</ele>
        <time>2015-11-01T09:54:18Z</time>
      </trkpt>
      <trkpt lat="45.00337" lon="4.52663">
        <ele>571</ele>
        <time>2015-11-01T09:54:23Z</time>
      </trkpt>
      <trkpt lat="45.00338" lon="4.52673">
        <ele>570</ele>
        <time>2015-11-01T09:54:31Z</time>
      </trkpt>
      <trkpt lat="45.00339" lon="4.52685">
        <ele>570</ele>
        <time>2015-11-01T09:54:38Z</time>
      </trkpt>
      <trkpt lat="45.00344" lon="4.52699">
        <ele>571</ele>
        <time>2015-11-01T09:54:42Z</time>
      </trkpt>
      <trkpt lat="45.00351" lon="4.52707">
        <ele>571</ele>
        <time>2015-11-01T09:54:58Z</time>
      </trkpt>
      <trkpt lat="45.00357" lon="4.52714">
        <ele>571</ele>
        <time>2015-11-01T09:55:06Z</time>
      </trkpt>
      <trkpt lat="45.00365" lon="4.52708">
        <ele>567</ele>
        <time>2015-11-01T09:55:11Z</time>
      </trkpt>
      <trkpt lat="45.00373" lon="4.52709">
        <ele>564</ele>
        <time>2015-11-01T09:55:19Z</time>
      </trkpt>
      <trkpt lat="45.0038" lon="4.52715">
        <ele>564</ele>
        <time>2015-11-01T09:55:28Z</time>
      </trkpt>
      <trkpt lat="45.00388" lon="4.52717">
        <ele>562</ele>
        <time>2015-11-01T09:55:45Z</time>
      </trkpt>
      <trkpt lat="45.00394" lon="4.5272">
        <ele>562</ele>
        <time>2015-11-01T09:55:50Z</time>
      </trkpt>
      <trkpt lat="45.00403" lon="4.52722">
        <ele>561</ele>
        <time>2015-11-01T09:55:55Z</time>
      </trkpt>
      <trkpt lat="45.00409" lon="4.52727">
        <ele>561</ele>
        <time>2015-11-01T09:55:59Z</time>
      </trkpt>
      <trkpt lat="45.00414" lon="4.52728">
        <ele>561</ele>
        <time>2015-11-01T09:56:02Z</time>
      </trkpt>
      <trkpt lat="45.00421" lon="4.52734">
        <ele>560</ele>
        <time>2015-11-01T09:56:07Z</time>
      </trkpt>
      <trkpt lat="45.00424" lon="4.52741">
        <ele>560</ele>
        <time>2015-11-01T09:56:13Z</time>
      </trkpt>
      <trkpt lat="45.00427" lon="4.5275">
        <ele>559</ele>
        <time>2015-11-01T09:56:19Z</time>
      </trkpt>
      <trkpt lat="45.00435" lon="4.52755">
        <ele>558</ele>
        <time>2015-11-01T09:56:29Z</time>
      </trkpt>
      <trkpt lat="45.00439" lon="4.52765">
        <ele>558</ele>
        <time>2015-11-01T09:56:37Z</time>
      </trkpt>
      <trkpt lat="45.00444" lon="4.5277">
        <ele>557</ele>
        <time>2015-11-01T09:56:45Z</time>
      </trkpt>
      <trkpt lat="45.0045" lon="4.52773">
        <ele>556</ele>
        <time>2015-11-01T09:56:49Z</time>
      </trkpt>
      <trkpt lat="45.00456" lon="4.52781">
        <ele>556</ele>
        <time>2015-11-01T09:56:57Z</time>
      </trkpt>
      <trkpt lat="45.00462" lon="4.52788">
        <ele>555</ele>
        <time>2015-11-01T09:57:04Z</time>
      </trkpt>
      <trkpt lat="45.00465" lon="4.528">
        <ele>554</ele>
        <time>2015-11-01T09:57:15Z</time>
      </trkpt>
      <trkpt lat="45.0047" lon="4.52803">
        <ele>554</ele>
        <time>2015-11-01T09:57:19Z</time>
      </trkpt>
      <trkpt lat="45.00475" lon="4.52811">
        <ele>554</ele>
        <time>2015-11-01T09:57:25Z</time>
      </trkpt>
      <trkpt lat="45.00476" lon="4.5282">
        <ele>553</ele>
        <time>2015-11-01T09:57:31Z</time>
      </trkpt>
      <trkpt lat="45.00481" lon="4.52827">
        <ele>553</ele>
        <time>2015-11-01T09:57:35Z</time>
      </trkpt>
      <trkpt lat="45.00482" lon="4.52835">
        <ele>553</ele>
        <time>2015-11-01T09:57:38Z</time>
      </trkpt>
      <trkpt lat="45.00482" lon="4.52847">
        <ele>553</ele>
        <time>2015-11-01T09:57:43Z</time>
      </trkpt>
      <trkpt lat="45.00484" lon="4.52851">
        <ele>552</ele>
        <time>2015-11-01T09:57:49Z</time>
      </trkpt>
      <trkpt lat="45.00489" lon="4.52872">
        <ele>553</ele>
        <time>2015-11-01T09:57:54Z</time>
      </trkpt>
      <trkpt lat="45.00493" lon="4.52882">
        <ele>553</ele>
        <time>2015-11-01T09:58:02Z</time>
      </trkpt>
      <trkpt lat="45.00494" lon="4.52884">
        <ele>552</ele>
        <time>2015-11-01T09:58:06Z</time>
      </trkpt>
      <trkpt lat="45.0051" lon="4.52877">
        <ele>553</ele>
        <time>2015-11-01T09:58:11Z</time>
      </trkpt>
      <trkpt lat="45.00505" lon="4.52887">
        <ele>553</ele>
        <time>2015-11-01T09:58:17Z</time>
      </trkpt>
      <trkpt lat="45.00499" lon="4.52895">
        <ele>552</ele>
        <time>2015-11-01T09:58:39Z</time>
      </trkpt>
      <trkpt lat="45.0049" lon="4.52894">
        <ele>551</ele>
        <time>2015-11-01T09:59:29Z</time>
      </trkpt>
      <trkpt lat="45.00482" lon="4.52898">
        <ele>552</ele>
        <time>2015-11-01T09:59:38Z</time>
      </trkpt>
      <trkpt lat="45.00474" lon="4.529">
        <ele>552</ele>
        <time>2015-11-01T09:59:45Z</time>
      </trkpt>
      <trkpt lat="45.00468" lon="4.52903">
        <ele>553</ele>
        <time>2015-11-01T09:59:52Z</time>
      </trkpt>
      <trkpt lat="45.00463" lon="4.52913">
        <ele>553</ele>
        <time>2015-11-01T09:59:57Z</time>
      </trkpt>
      <trkpt lat="45.00459" lon="4.52918">
        <ele>553</ele>
        <time>2015-11-01T10:00:02Z</time>
      </trkpt>
      <trkpt lat="45.00451" lon="4.52922">
        <ele>553</ele>
        <time>2015-11-01T10:00:09Z</time>
      </trkpt>
      <trkpt lat="45.00443" lon="4.52924">
        <ele>554</ele>
        <time>2015-11-01T10:00:16Z</time>
      </trkpt>
      <trkpt lat="45.00435" lon="4.52926">
        <ele>554</ele>
        <time>2015-11-01T10:00:24Z</time>
      </trkpt>
      <trkpt lat="45.00428" lon="4.52927">
        <ele>554</ele>
        <time>2015-11-01T10:00:29Z</time>
      </trkpt>
      <trkpt lat="45.00422" lon="4.52936">
        <ele>554</ele>
        <time>2015-11-01T10:00:38Z</time>
      </trkpt>
      <trkpt lat="45.00418" lon="4.52943">
        <ele>554</ele>
        <time>2015-11-01T10:00:44Z</time>
      </trkpt>
      <trkpt lat="45.00409" lon="4.52944">
        <ele>554</ele>
        <time>2015-11-01T10:00:51Z</time>
      </trkpt>
      <trkpt lat="45.00403" lon="4.52951">
        <ele>555</ele>
        <time>2015-11-01T10:00:55Z</time>
      </trkpt>
      <trkpt lat="45.00397" lon="4.52955">
        <ele>555</ele>
        <time>2015-11-01T10:01:02Z</time>
      </trkpt>
      <trkpt lat="45.00391" lon="4.52963">
        <ele>555</ele>
        <time>2015-11-01T10:01:07Z</time>
      </trkpt>
      <trkpt lat="45.00382" lon="4.52962">
        <ele>556</ele>
        <time>2015-11-01T10:01:19Z</time>
      </trkpt>
      <trkpt lat="45.00374" lon="4.52967">
        <ele>556</ele>
        <time>2015-11-01T10:01:27Z</time>
      </trkpt>
      <trkpt lat="45.00366" lon="4.52969">
        <ele>557</ele>
        <time>2015-11-01T10:01:41Z</time>
      </trkpt>
      <trkpt lat="45.00363" lon="4.52974">
        <ele>557</ele>
        <time>2015-11-01T10:01:49Z</time>
      </trkpt>
      <trkpt lat="45.00356" lon="4.52991">
        <ele>556</ele>
        <time>2015-11-01T10:01:54Z</time>
      </trkpt>
      <trkpt lat="45.0035" lon="4.52999">
        <ele>556</ele>
        <time>2015-11-01T10:01:59Z</time>
      </trkpt>
      <trkpt lat="45.00344" lon="4.53007">
        <ele>556</ele>
        <time>2015-11-01T10:02:08Z</time>
      </trkpt>
      <trkpt lat="45.0034" lon="4.53017">
        <ele>556</ele>
        <time>2015-11-01T10:02:15Z</time>
      </trkpt>
      <trkpt lat="45.00338" lon="4.53027">
        <ele>556</ele>
        <time>2015-11-01T10:02:21Z</time>
      </trkpt>
      <trkpt lat="45.00335" lon="4.53031">
        <ele>556</ele>
        <time>2015-11-01T10:02:25Z</time>
      </trkpt>
      <trkpt lat="45.00322" lon="4.53043">
        <ele>555</ele>
        <time>2015-11-01T10:02:36Z</time>
      </trkpt>
      <trkpt lat="45.00315" lon="4.53048">
        <ele>555</ele>
        <time>2015-11-01T10:02:41Z</time>
      </trkpt>
      <trkpt lat="45.00311" lon="4.53058">
        <ele>554</ele>
        <time>2015-11-01T10:02:47Z</time>
      </trkpt>
      <trkpt lat="45.0031" lon="4.53064">
        <ele>554</ele>
        <time>2015-11-01T10:02:57Z</time>
      </trkpt>
      <trkpt lat="45.00303" lon="4.53073">
        <ele>553</ele>
        <time>2015-11-01T10:03:01Z</time>
      </trkpt>
      <trkpt lat="45.00297" lon="4.5308">
        <ele>553</ele>
        <time>2015-11-01T10:03:14Z</time>
      </trkpt>
      <trkpt lat="45.00294" lon="4.5309">
        <ele>553</ele>
        <time>2015-11-01T10:03:19Z</time>
      </trkpt>
      <trkpt lat="45.00294" lon="4.53093">
        <ele>553</ele>
        <time>2015-11-01T10:03:27Z</time>
      </trkpt>
      <trkpt lat="45.00289" lon="4.53108">
        <ele>553</ele>
        <time>2015-11-01T10:03:31Z</time>
      </trkpt>
      <trkpt lat="45.0029" lon="4.53109">
        <ele>553</ele>
        <time>2015-11-01T10:03:42Z</time>
      </trkpt>
      <trkpt lat="45.00272" lon="4.53139">
        <ele>552</ele>
        <time>2015-11-01T10:03:47Z</time>
      </trkpt>
      <trkpt lat="45.00274" lon="4.5315">
        <ele>550</ele>
        <time>2015-11-01T10:04:25Z</time>
      </trkpt>
      <trkpt lat="45.00272" lon="4.5316">
        <ele>550</ele>
        <time>2015-11-01T10:04:31Z</time>
      </trkpt>
      <trkpt lat="45.00267" lon="4.53167">
        <ele>549</ele>
        <time>2015-11-01T10:04:37Z</time>
      </trkpt>
      <trkpt lat="45.00261" lon="4.53173">
        <ele>549</ele>
        <time>2015-11-01T10:04:43Z</time>
      </trkpt>
      <trkpt lat="45.00258" lon="4.53184">
        <ele>549</ele>
        <time>2015-11-01T10:04:49Z</time>
      </trkpt>
      <trkpt lat="45.00255" lon="4.53194">
        <ele>548</ele>
        <time>2015-11-01T10:04:53Z</time>
      </trkpt>
      <trkpt lat="45.00255" lon="4.53207">
        <ele>547</ele>
        <time>2015-11-01T10:04:58Z</time>
      </trkpt>
      <trkpt lat="45.00256" lon="4.53218">
        <ele>546</ele>
        <time>2015-11-01T10:05:03Z</time>
      </trkpt>
      <trkpt lat="45.00256" lon="4.53229">
        <ele>546</ele>
        <time>2015-11-01T10:05:10Z</time>
      </trkpt>
      <trkpt lat="45.00254" lon="4.5324">
        <ele>543</ele>
        <time>2015-11-01T10:05:19Z</time>
      </trkpt>
      <trkpt lat="45.00257" lon="4.53248">
        <ele>542</ele>
        <time>2015-11-01T10:05:25Z</time>
      </trkpt>
      <trkpt lat="45.00254" lon="4.53259">
        <ele>543</ele>
        <time>2015-11-01T10:05:31Z</time>
      </trkpt>
      <trkpt lat="45.00252" lon="4.53268">
        <ele>542</ele>
        <time>2015-11-01T10:05:41Z</time>
      </trkpt>
      <trkpt lat="45.00253" lon="4.5328">
        <ele>541</ele>
        <time>2015-11-01T10:05:48Z</time>
      </trkpt>
      <trkpt lat="45.00249" lon="4.5329">
        <ele>539</ele>
        <time>2015-11-01T10:05:54Z</time>
      </trkpt>
      <trkpt lat="45.00249" lon="4.53299">
        <ele>538</ele>
        <time>2015-11-01T10:06:03Z</time>
      </trkpt>
      <trkpt lat="45.00245" lon="4.53307">
        <ele>538</ele>
        <time>2015-11-01T10:06:07Z</time>
      </trkpt>
      <trkpt lat="45.00246" lon="4.53317">
        <ele>537</ele>
        <time>2015-11-01T10:06:11Z</time>
      </trkpt>
      <trkpt lat="45.00246" lon="4.53327">
        <ele>536</ele>
        <time>2015-11-01T10:06:17Z</time>
      </trkpt>
      <trkpt lat="45.00247" lon="4.53337">
        <ele>535</ele>
        <time>2015-11-01T10:06:21Z</time>
      </trkpt>
      <trkpt lat="45.00248" lon="4.53347">
        <ele>535</ele>
        <time>2015-11-01T10:06:27Z</time>
      </trkpt>
      <trkpt lat="45.00252" lon="4.53358">
        <ele>533</ele>
        <time>2015-11-01T10:06:39Z</time>
      </trkpt>
      <trkpt lat="45.00252" lon="4.53365">
        <ele>534</ele>
        <time>2015-11-01T10:06:46Z</time>
      </trkpt>
      <trkpt lat="45.00249" lon="4.53377">
        <ele>533</ele>
        <time>2015-11-01T10:06:54Z</time>
      </trkpt>
      <trkpt lat="45.00245" lon="4.53385">
        <ele>532</ele>
        <time>2015-11-01T10:07:07Z</time>
      </trkpt>
      <trkpt lat="45.00239" lon="4.53393">
        <ele>533</ele>
        <time>2015-11-01T10:07:14Z</time>
      </trkpt>
      <trkpt lat="45.00234" lon="4.53403">
        <ele>533</ele>
        <time>2015-11-01T10:07:21Z</time>
      </trkpt>
      <trkpt lat="45.0023" lon="4.53413">
        <ele>533</ele>
        <time>2015-11-01T10:07:31Z</time>
      </trkpt>
      <trkpt lat="45.00227" lon="4.53424">
        <ele>532</ele>
        <time>2015-11-01T10:07:48Z</time>
      </trkpt>
      <trkpt lat="45.00224" lon="4.5343">
        <ele>532</ele>
        <time>2015-11-01T10:07:54Z</time>
      </trkpt>
      <trkpt lat="45.00219" lon="4.53438">
        <ele>532</ele>
        <time>2015-11-01T10:07:59Z</time>
      </trkpt>
      <trkpt lat="45.00214" lon="4.53447">
        <ele>531</ele>
        <time>2015-11-01T10:08:04Z</time>
      </trkpt>
      <trkpt lat="45.00209" lon="4.53457">
        <ele>531</ele>
        <time>2015-11-01T10:08:09Z</time>
      </trkpt>
      <trkpt lat="45.00204" lon="4.53468">
        <ele>531</ele>
        <time>2015-11-01T10:08:13Z</time>
      </trkpt>
      <trkpt lat="45.00197" lon="4.53475">
        <ele>532</ele>
        <time>2015-11-01T10:08:25Z</time>
      </trkpt>
      <trkpt lat="45.00193" lon="4.53475">
        <ele>532</ele>
        <time>2015-11-01T10:08:37Z</time>
      </trkpt>
      <trkpt lat="45.00187" lon="4.53482">
        <ele>533</ele>
        <time>2015-11-01T10:08:41Z</time>
      </trkpt>
      <trkpt lat="45.00181" lon="4.53483">
        <ele>533</ele>
        <time>2015-11-01T10:08:52Z</time>
      </trkpt>
      <trkpt lat="45.00176" lon="4.53492">
        <ele>533</ele>
        <time>2015-11-01T10:09:16Z</time>
      </trkpt>
      <trkpt lat="45.00169" lon="4.53492">
        <ele>534</ele>
        <time>2015-11-01T10:09:25Z</time>
      </trkpt>
      <trkpt lat="45.0016" lon="4.5349">
        <ele>535</ele>
        <time>2015-11-01T10:09:36Z</time>
      </trkpt>
      <trkpt lat="45.00152" lon="4.53489">
        <ele>535</ele>
        <time>2015-11-01T10:09:41Z</time>
      </trkpt>
      <trkpt lat="45.00145" lon="4.53493">
        <ele>536</ele>
        <time>2015-11-01T10:09:46Z</time>
      </trkpt>
      <trkpt lat="45.00139" lon="4.53493">
        <ele>537</ele>
        <time>2015-11-01T10:09:51Z</time>
      </trkpt>
      <trkpt lat="45.00132" lon="4.5349">
        <ele>537</ele>
        <time>2015-11-01T10:09:57Z</time>
      </trkpt>
      <trkpt lat="45.00124" lon="4.53496">
        <ele>537</ele>
        <time>2015-11-01T10:10:04Z</time>
      </trkpt>
      <trkpt lat="45.00117" lon="4.53502">
        <ele>537</ele>
        <time>2015-11-01T10:10:11Z</time>
      </trkpt>
      <trkpt lat="45.00111" lon="4.5351">
        <ele>537</ele>
        <time>2015-11-01T10:10:17Z</time>
      </trkpt>
      <trkpt lat="45.00108" lon="4.53511">
        <ele>537</ele>
        <time>2015-11-01T10:10:34Z</time>
      </trkpt>
      <trkpt lat="45.00091" lon="4.53524">
        <ele>538</ele>
        <time>2015-11-01T10:10:38Z</time>
      </trkpt>
      <trkpt lat="45.00086" lon="4.53532">
        <ele>538</ele>
        <time>2015-11-01T10:10:43Z</time>
      </trkpt>
      <trkpt lat="45.00079" lon="4.53539">
        <ele>539</ele>
        <time>2015-11-01T10:10:49Z</time>
      </trkpt>
      <trkpt lat="45.00073" lon="4.53549">
        <ele>540</ele>
        <time>2015-11-01T10:10:57Z</time>
      </trkpt>
      <trkpt lat="45.0007" lon="4.53559">
        <ele>541</ele>
        <time>2015-11-01T10:11:06Z</time>
      </trkpt>
      <trkpt lat="45.00063" lon="4.53565">
        <ele>541</ele>
        <time>2015-11-01T10:11:20Z</time>
      </trkpt>
      <trkpt lat="45.00058" lon="4.53568">
        <ele>541</ele>
        <time>2015-11-01T10:11:20Z</time>
      </trkpt>
      <trkpt lat="45.00046" lon="4.53581">
        <ele>542</ele>
        <time>2015-11-01T10:11:29Z</time>
      </trkpt>
      <trkpt lat="45.00042" lon="4.53591">
        <ele>542</ele>
        <time>2015-11-01T10:11:37Z</time>
      </trkpt>
      <trkpt lat="45.00036" lon="4.53598">
        <ele>542</ele>
        <time>2015-11-01T10:11:45Z</time>
      </trkpt>
      <trkpt lat="45.00029" lon="4.53602">
        <ele>543</ele>
        <time>2015-11-01T10:11:51Z</time>
      </trkpt>
      <trkpt lat="45.00025" lon="4.53609">
        <ele>544</ele>
        <time>2015-11-01T10:11:57Z</time>
      </trkpt>
      <trkpt lat="45.00017" lon="4.53615">
        <ele>544</ele>
        <time>2015-11-01T10:12:03Z</time>
      </trkpt>
      <trkpt lat="45.00014" lon="4.53625">
        <ele>538</ele>
        <time>2015-11-01T10:12:28Z</time>
      </trkpt>
      <trkpt lat="45.00009" lon="4.53633">
        <ele>537</ele>
        <time>2015-11-01T10:12:43Z</time>
      </trkpt>
      <trkpt lat="45.00004" lon="4.53638">
        <ele>537</ele>
        <time>2015-11-01T10:12:48Z</time>
      </trkpt>
      <trkpt lat="44.99998" lon="4.53643">
        <ele>537</ele>
        <time>2015-11-01T10:12:52Z</time>
      </trkpt>
      <trkpt lat="44.99991" lon="4.53647">
        <ele>536</ele>
        <time>2015-11-01T10:12:57Z</time>
      </trkpt>
      <trkpt lat="44.99982" lon="4.5365">
        <ele>536</ele>
        <time>2015-11-01T10:13:06Z</time>
      </trkpt>
      <trkpt lat="44.99975" lon="4.53653">
        <ele>534</ele>
        <time>2015-11-01T10:13:15Z</time>
      </trkpt>
      <trkpt lat="44.99968" lon="4.5366">
        <ele>534</ele>
        <time>2015-11-01T10:13:21Z</time>
      </trkpt>
      <trkpt lat="44.9996" lon="4.53656">
        <ele>534</ele>
        <time>2015-11-01T10:13:34Z</time>
      </trkpt>
      <trkpt lat="44.99955" lon="4.53665">
        <ele>534</ele>
        <time>2015-11-01T10:13:41Z</time>
      </trkpt>
      <trkpt lat="44.99947" lon="4.5367">
        <ele>534</ele>
        <time>2015-11-01T10:13:47Z</time>
      </trkpt>
      <trkpt lat="44.99942" lon="4.53675">
        <ele>534</ele>
        <time>2015-11-01T10:13:57Z</time>
      </trkpt>
      <trkpt lat="44.99934" lon="4.53672">
        <ele>534</ele>
        <time>2015-11-01T10:14:01Z</time>
      </trkpt>
      <trkpt lat="44.99925" lon="4.53671">
        <ele>534</ele>
        <time>2015-11-01T10:14:07Z</time>
      </trkpt>
      <trkpt lat="44.99918" lon="4.53672">
        <ele>534</ele>
        <time>2015-11-01T10:14:12Z</time>
      </trkpt>
      <trkpt lat="44.99913" lon="4.53664">
        <ele>533</ele>
        <time>2015-11-01T10:14:17Z</time>
      </trkpt>
      <trkpt lat="44.99908" lon="4.53656">
        <ele>533</ele>
        <time>2015-11-01T10:14:24Z</time>
      </trkpt>
      <trkpt lat="44.99901" lon="4.53648">
        <ele>533</ele>
        <time>2015-11-01T10:14:28Z</time>
      </trkpt>
      <trkpt lat="44.99897" lon="4.53642">
        <ele>533</ele>
        <time>2015-11-01T10:14:31Z</time>
      </trkpt>
      <trkpt lat="44.99892" lon="4.53633">
        <ele>532</ele>
        <time>2015-11-01T10:14:35Z</time>
      </trkpt>
      <trkpt lat="44.99887" lon="4.53625">
        <ele>532</ele>
        <time>2015-11-01T10:14:44Z</time>
      </trkpt>
      <trkpt lat="44.99882" lon="4.53616">
        <ele>532</ele>
        <time>2015-11-01T10:14:51Z</time>
      </trkpt>
      <trkpt lat="44.99876" lon="4.5361">
        <ele>531</ele>
        <time>2015-11-01T10:15:03Z</time>
      </trkpt>
      <trkpt lat="44.99873" lon="4.53602">
        <ele>531</ele>
        <time>2015-11-01T10:15:07Z</time>
      </trkpt>
      <trkpt lat="44.99867" lon="4.53594">
        <ele>530</ele>
        <time>2015-11-01T10:15:14Z</time>
      </trkpt>
      <trkpt lat="44.9986" lon="4.53588">
        <ele>529</ele>
        <time>2015-11-01T10:15:21Z</time>
      </trkpt>
      <trkpt lat="44.99853" lon="4.53582">
        <ele>528</ele>
        <time>2015-11-01T10:15:27Z</time>
      </trkpt>
      <trkpt lat="44.99849" lon="4.53574">
        <ele>528</ele>
        <time>2015-11-01T10:15:31Z</time>
      </trkpt>
      <trkpt lat="44.99842" lon="4.53566">
        <ele>527</ele>
        <time>2015-11-01T10:15:37Z</time>
      </trkpt>
      <trkpt lat="44.99838" lon="4.53557">
        <ele>526</ele>
        <time>2015-11-01T10:15:42Z</time>
      </trkpt>
      <trkpt lat="44.99834" lon="4.53548">
        <ele>525</ele>
        <time>2015-11-01T10:15:48Z</time>
      </trkpt>
      <trkpt lat="44.99836" lon="4.53538">
        <ele>523</ele>
        <time>2015-11-01T10:15:55Z</time>
      </trkpt>
      <trkpt lat="44.99842" lon="4.53531">
        <ele>520</ele>
        <time>2015-11-01T10:16:02Z</time>
      </trkpt>
      <trkpt lat="44.9985" lon="4.53526">
        <ele>518</ele>
        <time>2015-11-01T10:16:13Z</time>
      </trkpt>
      <trkpt lat="44.99853" lon="4.53515">
        <ele>517</ele>
        <time>2015-11-01T10:16:19Z</time>
      </trkpt>
      <trkpt lat="44.99844" lon="4.53512">
        <ele>513</ele>
        <time>2015-11-01T10:16:50Z</time>
      </trkpt>
      <trkpt lat="44.99837" lon="4.53499">
        <ele>512</ele>
        <time>2015-11-01T10:16:54Z</time>
      </trkpt>
      <trkpt lat="44.99835" lon="4.53507">
        <ele>502</ele>
        <time>2015-11-01T10:17:26Z</time>
      </trkpt>
      <trkpt lat="44.99828" lon="4.5351">
        <ele>501</ele>
        <time>2015-11-01T10:17:33Z</time>
      </trkpt>
      <trkpt lat="44.9982" lon="4.5351">
        <ele>500</ele>
        <time>2015-11-01T10:17:38Z</time>
      </trkpt>
      <trkpt lat="44.99814" lon="4.5351">
        <ele>500</ele>
        <time>2015-11-01T10:17:41Z</time>
      </trkpt>
      <trkpt lat="44.99811" lon="4.5351">
        <ele>500</ele>
        <time>2015-11-01T10:17:43Z</time>
      </trkpt>
      <trkpt lat="44.99796" lon="4.53508">
        <ele>500</ele>
        <time>2015-11-01T10:17:54Z</time>
      </trkpt>
      <trkpt lat="44.99788" lon="4.53505">
        <ele>499</ele>
        <time>2015-11-01T10:18:01Z</time>
      </trkpt>
      <trkpt lat="44.99783" lon="4.53506">
        <ele>499</ele>
        <time>2015-11-01T10:18:05Z</time>
      </trkpt>
      <trkpt lat="44.99772" lon="4.53502">
        <ele>499</ele>
        <time>2015-11-01T10:18:12Z</time>
      </trkpt>
      <trkpt lat="44.99765" lon="4.535">
        <ele>498</ele>
        <time>2015-11-01T10:18:26Z</time>
      </trkpt>
      <trkpt lat="44.99748" lon="4.53495">
        <ele>498</ele>
        <time>2015-11-01T10:18:30Z</time>
      </trkpt>
      <trkpt lat="44.99741" lon="4.53491">
        <ele>497</ele>
        <time>2015-11-01T10:18:35Z</time>
      </trkpt>
      <trkpt lat="44.99735" lon="4.5349">
        <ele>497</ele>
        <time>2015-11-01T10:18:43Z</time>
      </trkpt>
      <trkpt lat="44.99728" lon="4.53485">
        <ele>496</ele>
        <time>2015-11-01T10:18:48Z</time>
      </trkpt>
      <trkpt lat="44.99722" lon="4.53479">
        <ele>496</ele>
        <time>2015-11-01T10:18:52Z</time>
      </trkpt>
      <trkpt lat="44.99715" lon="4.53471">
        <ele>495</ele>
        <time>2015-11-01T10:18:57Z</time>
      </trkpt>
      <trkpt lat="44.99708" lon="4.53468">
        <ele>495</ele>
        <time>2015-11-01T10:19:02Z</time>
      </trkpt>
      <trkpt lat="44.99702" lon="4.53462">
        <ele>494</ele>
        <time>2015-11-01T10:19:07Z</time>
      </trkpt>
      <trkpt lat="44.99696" lon="4.53458">
        <ele>494</ele>
        <time>2015-11-01T10:19:12Z</time>
      </trkpt>
      <trkpt lat="44.99688" lon="4.53457">
        <ele>493</ele>
        <time>2015-11-01T10:19:20Z</time>
      </trkpt>
      <trkpt lat="44.99682" lon="4.53463">
        <ele>492</ele>
        <time>2015-11-01T10:19:27Z</time>
      </trkpt>
      <trkpt lat="44.99674" lon="4.53467">
        <ele>491</ele>
        <time>2015-11-01T10:19:35Z</time>
      </trkpt>
      <trkpt lat="44.99666" lon="4.53464">
        <ele>490</ele>
        <time>2015-11-01T10:19:40Z</time>
      </trkpt>
      <trkpt lat="44.99659" lon="4.53465">
        <ele>490</ele>
        <time>2015-11-01T10:19:46Z</time>
      </trkpt>
      <trkpt lat="44.99652" lon="4.53467">
        <ele>489</ele>
        <time>2015-11-01T10:19:51Z</time>
      </trkpt>
      <trkpt lat="44.99646" lon="4.5347">
        <ele>488</ele>
        <time>2015-11-01T10:19:57Z</time>
      </trkpt>
      <trkpt lat="44.99638" lon="4.53472">
        <ele>487</ele>
        <time>2015-11-01T10:20:04Z</time>
      </trkpt>
      <trkpt lat="44.99631" lon="4.53473">
        <ele>486</ele>
        <time>2015-11-01T10:20:09Z</time>
      </trkpt>
      <trkpt lat="44.9963" lon="4.53461">
        <ele>477</ele>
        <time>2015-11-01T10:20:51Z</time>
      </trkpt>
      <trkpt lat="44.99635" lon="4.53452">
        <ele>475</ele>
        <time>2015-11-01T10:21:03Z</time>
      </trkpt>
      <trkpt lat="44.99642" lon="4.53446">
        <ele>474</ele>
        <time>2015-11-01T10:21:10Z</time>
      </trkpt>
      <trkpt lat="44.99647" lon="4.53436">
        <ele>473</ele>
        <time>2015-11-01T10:21:20Z</time>
      </trkpt>
      <trkpt lat="44.99652" lon="4.53427">
        <ele>472</ele>
        <time>2015-11-01T10:21:27Z</time>
      </trkpt>
      <trkpt lat="44.99659" lon="4.53419">
        <ele>471</ele>
        <time>2015-11-01T10:21:36Z</time>
      </trkpt>
      <trkpt lat="44.99664" lon="4.53415">
        <ele>470</ele>
        <time>2015-11-01T10:21:41Z</time>
      </trkpt>
      <trkpt lat="44.9967" lon="4.53407">
        <ele>470</ele>
        <time>2015-11-01T10:21:46Z</time>
      </trkpt>
      <trkpt lat="44.99676" lon="4.53401">
        <ele>469</ele>
        <time>2015-11-01T10:21:51Z</time>
      </trkpt>
      <trkpt lat="44.99682" lon="4.53396">
        <ele>467</ele>
        <time>2015-11-01T10:22:07Z</time>
      </trkpt>
      <trkpt lat="44.99688" lon="4.53393">
        <ele>466</ele>
        <time>2015-11-01T10:22:13Z</time>
      </trkpt>
      <trkpt lat="44.99696" lon="4.53391">
        <ele>465</ele>
        <time>2015-11-01T10:22:17Z</time>
      </trkpt>
      <trkpt lat="44.99694" lon="4.53381">
        <ele>462</ele>
        <time>2015-11-01T10:22:40Z</time>
      </trkpt>
      <trkpt lat="44.99687" lon="4.53374">
        <ele>461</ele>
        <time>2015-11-01T10:22:47Z</time>
      </trkpt>
      <trkpt lat="44.99681" lon="4.53371">
        <ele>461</ele>
        <time>2015-11-01T10:22:51Z</time>
      </trkpt>
      <trkpt lat="44.99673" lon="4.53366">
        <ele>460</ele>
        <time>2015-11-01T10:22:56Z</time>
      </trkpt>
      <trkpt lat="44.99666" lon="4.53362">
        <ele>460</ele>
        <time>2015-11-01T10:23:03Z</time>
      </trkpt>
      <trkpt lat="44.9966" lon="4.53361">
        <ele>460</ele>
        <time>2015-11-01T10:23:07Z</time>
      </trkpt>
      <trkpt lat="44.99653" lon="4.53359">
        <ele>459</ele>
        <time>2015-11-01T10:23:14Z</time>
      </trkpt>
      <trkpt lat="44.99647" lon="4.53362">
        <ele>459</ele>
        <time>2015-11-01T10:23:18Z</time>
      </trkpt>
      <trkpt lat="44.99639" lon="4.53364">
        <ele>458</ele>
        <time>2015-11-01T10:23:24Z</time>
      </trkpt>
      <trkpt lat="44.9963" lon="4.53365">
        <ele>457</ele>
        <time>2015-11-01T10:23:31Z</time>
      </trkpt>
      <trkpt lat="44.99622" lon="4.53366">
        <ele>456</ele>
        <time>2015-11-01T10:23:37Z</time>
      </trkpt>
      <trkpt lat="44.99615" lon="4.53361">
        <ele>456</ele>
        <time>2015-11-01T10:23:43Z</time>
      </trkpt>
      <trkpt lat="44.99607" lon="4.53357">
        <ele>454</ele>
        <time>2015-11-01T10:23:49Z</time>
      </trkpt>
      <trkpt lat="44.996" lon="4.53352">
        <ele>453</ele>
        <time>2015-11-01T10:23:56Z</time>
      </trkpt>
      <trkpt lat="44.99592" lon="4.53346">
        <ele>452</ele>
        <time>2015-11-01T10:24:04Z</time>
      </trkpt>
      <trkpt lat="44.99586" lon="4.53338">
        <ele>452</ele>
        <time>2015-11-01T10:24:11Z</time>
      </trkpt>
      <trkpt lat="44.9958" lon="4.5333">
        <ele>452</ele>
        <time>2015-11-01T10:24:18Z</time>
      </trkpt>
      <trkpt lat="44.99576" lon="4.5332">
        <ele>451</ele>
        <time>2015-11-01T10:24:25Z</time>
      </trkpt>
      <trkpt lat="44.9957" lon="4.53312">
        <ele>450</ele>
        <time>2015-11-01T10:24:33Z</time>
      </trkpt>
      <trkpt lat="44.99566" lon="4.53304">
        <ele>449</ele>
        <time>2015-11-01T10:24:39Z</time>
      </trkpt>
      <trkpt lat="44.9956" lon="4.53296">
        <ele>449</ele>
        <time>2015-11-01T10:24:47Z</time>
      </trkpt>
      <trkpt lat="44.99552" lon="4.53294">
        <ele>448</ele>
        <time>2015-11-01T10:25:01Z</time>
      </trkpt>
      <trkpt lat="44.99547" lon="4.53286">
        <ele>448</ele>
        <time>2015-11-01T10:25:05Z</time>
      </trkpt>
      <trkpt lat="44.99541" lon="4.53277">
        <ele>447</ele>
        <time>2015-11-01T10:25:09Z</time>
      </trkpt>
      <trkpt lat="44.99536" lon="4.53267">
        <ele>445</ele>
        <time>2015-11-01T10:25:19Z</time>
      </trkpt>
      <trkpt lat="44.99533" lon="4.53256">
        <ele>444</ele>
        <time>2015-11-01T10:25:31Z</time>
      </trkpt>
      <trkpt lat="44.99531" lon="4.53244">
        <ele>443</ele>
        <time>2015-11-01T10:25:39Z</time>
      </trkpt>
      <trkpt lat="44.99527" lon="4.53233">
        <ele>440</ele>
        <time>2015-11-01T10:25:55Z</time>
      </trkpt>
      <trkpt lat="44.99524" lon="4.53223">
        <ele>439</ele>
        <time>2015-11-01T10:26:05Z</time>
      </trkpt>
      <trkpt lat="44.99522" lon="4.53212">
        <ele>437</ele>
        <time>2015-11-01T10:26:11Z</time>
      </trkpt>
      <trkpt lat="44.99519" lon="4.53208">
        <ele>437</ele>
        <time>2015-11-01T10:26:19Z</time>
      </trkpt>
      <trkpt lat="44.99515" lon="4.532">
        <ele>435</ele>
        <time>2015-11-01T10:26:34Z</time>
      </trkpt>
      <trkpt lat="44.99497" lon="4.53171">
        <ele>431</ele>
        <time>2015-11-01T10:26:39Z</time>
      </trkpt>
      <trkpt lat="44.99492" lon="4.53165">
        <ele>430</ele>
        <time>2015-11-01T10:26:43Z</time>
      </trkpt>
      <trkpt lat="44.99485" lon="4.5316">
        <ele>430</ele>
        <time>2015-11-01T10:26:49Z</time>
      </trkpt>
      <trkpt lat="44.99477" lon="4.53156">
        <ele>429</ele>
        <time>2015-11-01T10:26:55Z</time>
      </trkpt>
      <trkpt lat="44.99469" lon="4.53153">
        <ele>428</ele>
        <time>2015-11-01T10:27:00Z</time>
      </trkpt>
      <trkpt lat="44.99463" lon="4.53156">
        <ele>427</ele>
        <time>2015-11-01T10:27:07Z</time>
      </trkpt>
      <trkpt lat="44.99455" lon="4.5316">
        <ele>426</ele>
        <time>2015-11-01T10:27:14Z</time>
      </trkpt>
      <trkpt lat="44.99447" lon="4.5316">
        <ele>425</ele>
        <time>2015-11-01T10:27:20Z</time>
      </trkpt>
      <trkpt lat="44.99439" lon="4.53162">
        <ele>424</ele>
        <time>2015-11-01T10:27:28Z</time>
      </trkpt>
      <trkpt lat="44.99433" lon="4.53167">
        <ele>424</ele>
        <time>2015-11-01T10:27:33Z</time>
      </trkpt>
      <trkpt lat="44.99427" lon="4.53175">
        <ele>423</ele>
        <time>2015-11-01T10:27:39Z</time>
      </trkpt>
      <trkpt lat="44.99423" lon="4.53182">
        <ele>423</ele>
        <time>2015-11-01T10:27:46Z</time>
      </trkpt>
      <trkpt lat="44.99416" lon="4.53185">
        <ele>423</ele>
        <time>2015-11-01T10:27:49Z</time>
      </trkpt>
      <trkpt lat="44.99409" lon="4.53189">
        <ele>423</ele>
        <time>2015-11-01T10:27:55Z</time>
      </trkpt>
      <trkpt lat="44.99402" lon="4.53186">
        <ele>423</ele>
        <time>2015-11-01T10:28:06Z</time>
      </trkpt>
      <trkpt lat="44.99402" lon="4.53178">
        <ele>423</ele>
        <time>2015-11-01T10:28:13Z</time>
      </trkpt>
      <trkpt lat="44.99398" lon="4.53169">
        <ele>423</ele>
        <time>2015-11-01T10:28:19Z</time>
      </trkpt>
      <trkpt lat="44.99399" lon="4.53158">
        <ele>422</ele>
        <time>2015-11-01T10:28:25Z</time>
      </trkpt>
      <trkpt lat="44.99403" lon="4.53151">
        <ele>421</ele>
        <time>2015-11-01T10:28:29Z</time>
      </trkpt>
      <trkpt lat="44.99407" lon="4.53142">
        <ele>420</ele>
        <time>2015-11-01T10:28:35Z</time>
      </trkpt>
      <trkpt lat="44.99413" lon="4.53132">
        <ele>419</ele>
        <time>2015-11-01T10:28:45Z</time>
      </trkpt>
      <trkpt lat="44.99418" lon="4.53123">
        <ele>418</ele>
        <time>2015-11-01T10:28:52Z</time>
      </trkpt>
      <trkpt lat="44.99418" lon="4.5311">
        <ele>418</ele>
        <time>2015-11-01T10:29:00Z</time>
      </trkpt>
      <trkpt lat="44.99424" lon="4.53101">
        <ele>415</ele>
        <time>2015-11-01T10:29:57Z</time>
      </trkpt>
      <trkpt lat="44.99431" lon="4.53094">
        <ele>415</ele>
        <time>2015-11-01T10:30:09Z</time>
      </trkpt>
      <trkpt lat="44.99439" lon="4.53094">
        <ele>414</ele>
        <time>2015-11-01T10:30:15Z</time>
      </trkpt>
      <trkpt lat="44.99447" lon="4.5309">
        <ele>414</ele>
        <time>2015-11-01T10:30:23Z</time>
      </trkpt>
      <trkpt lat="44.99454" lon="4.53084">
        <ele>413</ele>
        <time>2015-11-01T10:30:31Z</time>
      </trkpt>
      <trkpt lat="44.99459" lon="4.53077">
        <ele>413</ele>
        <time>2015-11-01T10:30:37Z</time>
      </trkpt>
      <trkpt lat="44.99466" lon="4.53071">
        <ele>412</ele>
        <time>2015-11-01T10:30:47Z</time>
      </trkpt>
      <trkpt lat="44.99467" lon="4.5307">
        <ele>412</ele>
        <time>2015-11-01T10:30:48Z</time>
      </trkpt>
      <trkpt lat="44.99475" lon="4.53063">
        <ele>411</ele>
        <time>2015-11-01T10:30:56Z</time>
      </trkpt>
      <trkpt lat="44.99479" lon="4.53057">
        <ele>409</ele>
        <time>2015-11-01T10:31:02Z</time>
      </trkpt>
      <trkpt lat="44.99485" lon="4.53049">
        <ele>406</ele>
        <time>2015-11-01T10:31:14Z</time>
      </trkpt>
      <trkpt lat="44.99492" lon="4.53044">
        <ele>405</ele>
        <time>2015-11-01T10:31:20Z</time>
      </trkpt>
      <trkpt lat="44.99497" lon="4.53037">
        <ele>405</ele>
        <time>2015-11-01T10:31:25Z</time>
      </trkpt>
      <trkpt lat="44.99504" lon="4.53029">
        <ele>404</ele>
        <time>2015-11-01T10:31:33Z</time>
      </trkpt>
      <trkpt lat="44.99502" lon="4.53019">
        <ele>403</ele>
        <time>2015-11-01T10:31:41Z</time>
      </trkpt>
      <trkpt lat="44.99498" lon="4.53009">
        <ele>401</ele>
        <time>2015-11-01T10:31:48Z</time>
      </trkpt>
      <trkpt lat="44.99492" lon="4.53003">
        <ele>400</ele>
        <time>2015-11-01T10:31:52Z</time>
      </trkpt>
      <trkpt lat="44.99484" lon="4.52999">
        <ele>398</ele>
        <time>2015-11-01T10:31:59Z</time>
      </trkpt>
      <trkpt lat="44.99477" lon="4.52996">
        <ele>397</ele>
        <time>2015-11-01T10:32:06Z</time>
      </trkpt>
      <trkpt lat="44.99468" lon="4.52993">
        <ele>395</ele>
        <time>2015-11-01T10:32:14Z</time>
      </trkpt>
      <trkpt lat="44.99461" lon="4.52987">
        <ele>394</ele>
        <time>2015-11-01T10:32:20Z</time>
      </trkpt>
      <trkpt lat="44.99455" lon="4.5298">
        <ele>393</ele>
        <time>2015-11-01T10:32:27Z</time>
      </trkpt>
      <trkpt lat="44.99449" lon="4.52976">
        <ele>393</ele>
        <time>2015-11-01T10:32:31Z</time>
      </trkpt>
      <trkpt lat="44.99441" lon="4.52977">
        <ele>392</ele>
        <time>2015-11-01T10:32:38Z</time>
      </trkpt>
      <trkpt lat="44.99435" lon="4.52985">
        <ele>391</ele>
        <time>2015-11-01T10:32:43Z</time>
      </trkpt>
      <trkpt lat="44.99429" lon="4.52989">
        <ele>390</ele>
        <time>2015-11-01T10:32:48Z</time>
      </trkpt>
      <trkpt lat="44.99422" lon="4.52996">
        <ele>389</ele>
        <time>2015-11-01T10:32:57Z</time>
      </trkpt>
      <trkpt lat="44.99414" lon="4.53001">
        <ele>388</ele>
        <time>2015-11-01T10:33:05Z</time>
      </trkpt>
      <trkpt lat="44.99408" lon="4.53008">
        <ele>388</ele>
        <time>2015-11-01T10:33:11Z</time>
      </trkpt>
      <trkpt lat="44.99402" lon="4.53015">
        <ele>387</ele>
        <time>2015-11-01T10:33:17Z</time>
      </trkpt>
      <trkpt lat="44.99395" lon="4.53018">
        <ele>386</ele>
        <time>2015-11-01T10:33:24Z</time>
      </trkpt>
      <trkpt lat="44.99386" lon="4.53024">
        <ele>384</ele>
        <time>2015-11-01T10:33:35Z</time>
      </trkpt>
      <trkpt lat="44.99381" lon="4.53033">
        <ele>383</ele>
        <time>2015-11-01T10:33:41Z</time>
      </trkpt>
      <trkpt lat="44.99374" lon="4.5304">
        <ele>383</ele>
        <time>2015-11-01T10:33:45Z</time>
      </trkpt>
      <trkpt lat="44.99363" lon="4.53048">
        <ele>383</ele>
        <time>2015-11-01T10:33:49Z</time>
      </trkpt>
      <trkpt lat="44.99355" lon="4.53056">
        <ele>384</ele>
        <time>2015-11-01T10:33:54Z</time>
      </trkpt>
      <trkpt lat="44.9935" lon="4.53062">
        <ele>384</ele>
        <time>2015-11-01T10:34:00Z</time>
      </trkpt>
      <trkpt lat="44.99335" lon="4.53058">
        <ele>385</ele>
        <time>2015-11-01T10:34:05Z</time>
      </trkpt>
      <trkpt lat="44.99336" lon="4.5307">
        <ele>386</ele>
        <time>2015-11-01T10:34:18Z</time>
      </trkpt>
      <trkpt lat="44.99351" lon="4.53087">
        <ele>386</ele>
        <time>2015-11-01T10:34:22Z</time>
      </trkpt>
      <trkpt lat="44.99343" lon="4.53092">
        <ele>386</ele>
        <time>2015-11-01T10:34:27Z</time>
      </trkpt>
      <trkpt lat="44.99334" lon="4.53097">
        <ele>387</ele>
        <time>2015-11-01T10:34:31Z</time>
      </trkpt>
      <trkpt lat="44.99326" lon="4.53098">
        <ele>387</ele>
        <time>2015-11-01T10:34:36Z</time>
      </trkpt>
      <trkpt lat="44.99323" lon="4.53107">
        <ele>388</ele>
        <time>2015-11-01T10:34:45Z</time>
      </trkpt>
      <trkpt lat="44.99312" lon="4.53097">
        <ele>388</ele>
        <time>2015-11-01T10:34:49Z</time>
      </trkpt>
      <trkpt lat="44.99298" lon="4.53087">
        <ele>389</ele>
        <time>2015-11-01T10:34:52Z</time>
      </trkpt>
      <trkpt lat="44.99287" lon="4.53086">
        <ele>389</ele>
        <time>2015-11-01T10:34:57Z</time>
      </trkpt>
      <trkpt lat="44.99282" lon="4.53091">
        <ele>390</ele>
        <time>2015-11-01T10:35:04Z</time>
      </trkpt>
      <trkpt lat="44.99277" lon="4.53082">
        <ele>390</ele>
        <time>2015-11-01T10:35:20Z</time>
      </trkpt>
      <trkpt lat="44.99275" lon="4.53074">
        <ele>390</ele>
        <time>2015-11-01T10:35:27Z</time>
      </trkpt>
      <trkpt lat="44.99271" lon="4.53065">
        <ele>390</ele>
        <time>2015-11-01T10:35:31Z</time>
      </trkpt>
      <trkpt lat="44.99269" lon="4.53054">
        <ele>389</ele>
        <time>2015-11-01T10:35:41Z</time>
      </trkpt>
      <trkpt lat="44.99266" lon="4.53047">
        <ele>388</ele>
        <time>2015-11-01T10:35:51Z</time>
      </trkpt>
      <trkpt lat="44.99262" lon="4.53036">
        <ele>387</ele>
        <time>2015-11-01T10:35:57Z</time>
      </trkpt>
      <trkpt lat="44.99257" lon="4.53028">
        <ele>387</ele>
        <time>2015-11-01T10:36:02Z</time>
      </trkpt>
      <trkpt lat="44.99254" lon="4.53019">
        <ele>386</ele>
        <time>2015-11-01T10:36:09Z</time>
      </trkpt>
      <trkpt lat="44.99251" lon="4.53007">
        <ele>384</ele>
        <time>2015-11-01T10:36:16Z</time>
      </trkpt>
      <trkpt lat="44.99248" lon="4.52999">
        <ele>383</ele>
        <time>2015-11-01T10:36:21Z</time>
      </trkpt>
      <trkpt lat="44.99243" lon="4.5299">
        <ele>383</ele>
        <time>2015-11-01T10:36:27Z</time>
      </trkpt>
      <trkpt lat="44.9924" lon="4.52981">
        <ele>383</ele>
        <time>2015-11-01T10:36:43Z</time>
      </trkpt>
      <trkpt lat="44.99236" lon="4.52971">
        <ele>383</ele>
        <time>2015-11-01T10:36:47Z</time>
      </trkpt>
      <trkpt lat="44.99232" lon="4.52962">
        <ele>382</ele>
        <time>2015-11-01T10:36:51Z</time>
      </trkpt>
      <trkpt lat="44.99228" lon="4.52953">
        <ele>381</ele>
        <time>2015-11-01T10:36:57Z</time>
      </trkpt>
      <trkpt lat="44.99226" lon="4.52947">
        <ele>380</ele>
        <time>2015-11-01T10:37:00Z</time>
      </trkpt>
      <trkpt lat="44.99223" lon="4.52942">
        <ele>380</ele>
        <time>2015-11-01T10:37:03Z</time>
      </trkpt>
      <trkpt lat="44.99221" lon="4.52931">
        <ele>379</ele>
        <time>2015-11-01T10:37:12Z</time>
      </trkpt>
      <trkpt lat="44.99219" lon="4.5292">
        <ele>379</ele>
        <time>2015-11-01T10:37:20Z</time>
      </trkpt>
      <trkpt lat="44.99214" lon="4.5291">
        <ele>379</ele>
        <time>2015-11-01T10:37:26Z</time>
      </trkpt>
      <trkpt lat="44.99213" lon="4.529">
        <ele>379</ele>
        <time>2015-11-01T10:37:31Z</time>
      </trkpt>
      <trkpt lat="44.99208" lon="4.52891">
        <ele>378</ele>
        <time>2015-11-01T10:37:37Z</time>
      </trkpt>
      <trkpt lat="44.99209" lon="4.52881">
        <ele>378</ele>
        <time>2015-11-01T10:37:43Z</time>
      </trkpt>
      <trkpt lat="44.99211" lon="4.52871">
        <ele>376</ele>
        <time>2015-11-01T10:37:53Z</time>
      </trkpt>
      <trkpt lat="44.99214" lon="4.5286">
        <ele>375</ele>
        <time>2015-11-01T10:38:04Z</time>
      </trkpt>
      <trkpt lat="44.99222" lon="4.52854">
        <ele>374</ele>
        <time>2015-11-01T10:38:17Z</time>
      </trkpt>
      <trkpt lat="44.99227" lon="4.5285">
        <ele>374</ele>
        <time>2015-11-01T10:38:21Z</time>
      </trkpt>
      <trkpt lat="44.99237" lon="4.52838">
        <ele>374</ele>
        <time>2015-11-01T10:38:38Z</time>
      </trkpt>
      <trkpt lat="44.99245" lon="4.52839">
        <ele>373</ele>
        <time>2015-11-01T10:38:43Z</time>
      </trkpt>
      <trkpt lat="44.99285" lon="4.52823">
        <ele>373</ele>
        <time>2015-11-01T10:38:47Z</time>
      </trkpt>
      <trkpt lat="44.99319" lon="4.5281">
        <ele>373</ele>
        <time>2015-11-01T10:38:51Z</time>
      </trkpt>
      <trkpt lat="44.99306" lon="4.52816">
        <ele>373</ele>
        <time>2015-11-01T10:38:55Z</time>
      </trkpt>
      <trkpt lat="44.99299" lon="4.52816">
        <ele>373</ele>
        <time>2015-11-01T10:38:59Z</time>
      </trkpt>
      <trkpt lat="44.99296" lon="4.52824">
        <ele>370</ele>
        <time>2015-11-01T10:39:03Z</time>
      </trkpt>
      <trkpt lat="44.99289" lon="4.52828">
        <ele>369</ele>
        <time>2015-11-01T10:39:10Z</time>
      </trkpt>
      <trkpt lat="44.99286" lon="4.52832">
        <ele>369</ele>
        <time>2015-11-01T10:39:19Z</time>
      </trkpt>
      <trkpt lat="44.99272" lon="4.5283">
        <ele>372</ele>
        <time>2015-11-01T10:39:23Z</time>
      </trkpt>
      <trkpt lat="44.99272" lon="4.52832">
        <ele>375</ele>
        <time>2015-11-01T10:39:45Z</time>
      </trkpt>
      <trkpt lat="44.99276" lon="4.5282">
        <ele>379</ele>
        <time>2015-11-01T10:40:00Z</time>
      </trkpt>
      <trkpt lat="44.99278" lon="4.52811">
        <ele>384</ele>
        <time>2015-11-01T10:40:16Z</time>
      </trkpt>
      <trkpt lat="44.99273" lon="4.52802">
        <ele>385</ele>
        <time>2015-11-01T10:40:30Z</time>
      </trkpt>
      <trkpt lat="44.99273" lon="4.52791">
        <ele>385</ele>
        <time>2015-11-01T10:40:36Z</time>
      </trkpt>
      <trkpt lat="44.99277" lon="4.52783">
        <ele>385</ele>
        <time>2015-11-01T10:40:41Z</time>
      </trkpt>
      <trkpt lat="44.99285" lon="4.5278">
        <ele>385</ele>
        <time>2015-11-01T10:40:45Z</time>
      </trkpt>
      <trkpt lat="44.99289" lon="4.52771">
        <ele>386</ele>
        <time>2015-11-01T10:40:52Z</time>
      </trkpt>
      <trkpt lat="44.99292" lon="4.52763">
        <ele>387</ele>
        <time>2015-11-01T10:40:57Z</time>
      </trkpt>
      <trkpt lat="44.993" lon="4.52757">
        <ele>389</ele>
        <time>2015-11-01T10:41:05Z</time>
      </trkpt>
      <trkpt lat="44.99306" lon="4.5275">
        <ele>390</ele>
        <time>2015-11-01T10:41:12Z</time>
      </trkpt>
      <trkpt lat="44.99312" lon="4.52749">
        <ele>391</ele>
        <time>2015-11-01T10:41:16Z</time>
      </trkpt>
      <trkpt lat="44.9932" lon="4.52747">
        <ele>392</ele>
        <time>2015-11-01T10:41:23Z</time>
      </trkpt>
      <trkpt lat="44.99324" lon="4.52737">
        <ele>393</ele>
        <time>2015-11-01T10:41:30Z</time>
      </trkpt>
      <trkpt lat="44.99326" lon="4.52723">
        <ele>393</ele>
        <time>2015-11-01T10:41:34Z</time>
      </trkpt>
      <trkpt lat="44.9933" lon="4.52711">
        <ele>394</ele>
        <time>2015-11-01T10:41:39Z</time>
      </trkpt>
      <trkpt lat="44.99331" lon="4.527">
        <ele>395</ele>
        <time>2015-11-01T10:41:51Z</time>
      </trkpt>
      <trkpt lat="44.99333" lon="4.52689">
        <ele>396</ele>
        <time>2015-11-01T10:41:58Z</time>
      </trkpt>
      <trkpt lat="44.99334" lon="4.52676">
        <ele>396</ele>
        <time>2015-11-01T10:42:06Z</time>
      </trkpt>
      <trkpt lat="44.9934" lon="4.52668">
        <ele>398</ele>
        <time>2015-11-01T10:42:22Z</time>
      </trkpt>
      <trkpt lat="44.99343" lon="4.52657">
        <ele>398</ele>
        <time>2015-11-01T10:42:31Z</time>
      </trkpt>
      <trkpt lat="44.9935" lon="4.52649">
        <ele>398</ele>
        <time>2015-11-01T10:42:37Z</time>
      </trkpt>
      <trkpt lat="44.99356" lon="4.52641">
        <ele>398</ele>
        <time>2015-11-01T10:42:44Z</time>
      </trkpt>
      <trkpt lat="44.99358" lon="4.5263">
        <ele>398</ele>
        <time>2015-11-01T10:42:49Z</time>
      </trkpt>
      <trkpt lat="44.99364" lon="4.52622">
        <ele>398</ele>
        <time>2015-11-01T10:42:55Z</time>
      </trkpt>
      <trkpt lat="44.99368" lon="4.52612">
        <ele>398</ele>
        <time>2015-11-01T10:43:01Z</time>
      </trkpt>
      <trkpt lat="44.99371" lon="4.52602">
        <ele>398</ele>
        <time>2015-11-01T10:43:08Z</time>
      </trkpt>
      <trkpt lat="44.99371" lon="4.52591">
        <ele>399</ele>
        <time>2015-11-01T10:43:13Z</time>
      </trkpt>
      <trkpt lat="44.99372" lon="4.52578">
        <ele>401</ele>
        <time>2015-11-01T10:43:21Z</time>
      </trkpt>
      <trkpt lat="44.99373" lon="4.52568">
        <ele>402</ele>
        <time>2015-11-01T10:43:27Z</time>
      </trkpt>
      <trkpt lat="44.99378" lon="4.52558">
        <ele>402</ele>
        <time>2015-11-01T10:43:34Z</time>
      </trkpt>
      <trkpt lat="44.99378" lon="4.52549">
        <ele>402</ele>
        <time>2015-11-01T10:43:37Z</time>
      </trkpt>
      <trkpt lat="44.99378" lon="4.52539">
        <ele>403</ele>
        <time>2015-11-01T10:43:41Z</time>
      </trkpt>
      <trkpt lat="44.99379" lon="4.52528">
        <ele>403</ele>
        <time>2015-11-01T10:43:46Z</time>
      </trkpt>
      <trkpt lat="44.99383" lon="4.52521">
        <ele>404</ele>
        <time>2015-11-01T10:43:51Z</time>
      </trkpt>
      <trkpt lat="44.99388" lon="4.52513">
        <ele>404</ele>
        <time>2015-11-01T10:43:57Z</time>
      </trkpt>
      <trkpt lat="44.99394" lon="4.52504">
        <ele>404</ele>
        <time>2015-11-01T10:44:06Z</time>
      </trkpt>
      <trkpt lat="44.99397" lon="4.52495">
        <ele>404</ele>
        <time>2015-11-01T10:44:15Z</time>
      </trkpt>
      <trkpt lat="44.99398" lon="4.52485">
        <ele>404</ele>
        <time>2015-11-01T10:44:21Z</time>
      </trkpt>
      <trkpt lat="44.99397" lon="4.52473">
        <ele>405</ele>
        <time>2015-11-01T10:44:27Z</time>
      </trkpt>
      <trkpt lat="44.99394" lon="4.52462">
        <ele>405</ele>
        <time>2015-11-01T10:44:32Z</time>
      </trkpt>
      <trkpt lat="44.99395" lon="4.5245">
        <ele>406</ele>
        <time>2015-11-01T10:44:40Z</time>
      </trkpt>
      <trkpt lat="44.994" lon="4.52443">
        <ele>407</ele>
        <time>2015-11-01T10:44:49Z</time>
      </trkpt>
      <trkpt lat="44.99404" lon="4.52439">
        <ele>408</ele>
        <time>2015-11-01T10:44:58Z</time>
      </trkpt>
      <trkpt lat="44.99407" lon="4.52427">
        <ele>409</ele>
        <time>2015-11-01T10:45:02Z</time>
      </trkpt>
      <trkpt lat="44.99407" lon="4.52413">
        <ele>409</ele>
        <time>2015-11-01T10:45:07Z</time>
      </trkpt>
      <trkpt lat="44.99408" lon="4.52401">
        <ele>410</ele>
        <time>2015-11-01T10:45:11Z</time>
      </trkpt>
      <trkpt lat="44.99407" lon="4.52391">
        <ele>411</ele>
        <time>2015-11-01T10:45:21Z</time>
      </trkpt>
      <trkpt lat="44.99412" lon="4.52373">
        <ele>414</ele>
        <time>2015-11-01T10:45:26Z</time>
      </trkpt>
      <trkpt lat="44.99416" lon="4.52363">
        <ele>415</ele>
        <time>2015-11-01T10:46:01Z</time>
      </trkpt>
      <trkpt lat="44.99418" lon="4.52352">
        <ele>414</ele>
        <time>2015-11-01T10:46:09Z</time>
      </trkpt>
      <trkpt lat="44.99416" lon="4.52342">
        <ele>414</ele>
        <time>2015-11-01T10:46:15Z</time>
      </trkpt>
      <trkpt lat="44.99414" lon="4.52331">
        <ele>413</ele>
        <time>2015-11-01T10:46:22Z</time>
      </trkpt>
      <trkpt lat="44.99414" lon="4.52319">
        <ele>413</ele>
        <time>2015-11-01T10:46:30Z</time>
      </trkpt>
      <trkpt lat="44.99415" lon="4.52309">
        <ele>413</ele>
        <time>2015-11-01T10:46:35Z</time>
      </trkpt>
      <trkpt lat="44.99415" lon="4.52299">
        <ele>412</ele>
        <time>2015-11-01T10:46:39Z</time>
      </trkpt>
      <trkpt lat="44.99413" lon="4.52288">
        <ele>411</ele>
        <time>2015-11-01T10:46:47Z</time>
      </trkpt>
      <trkpt lat="44.99411" lon="4.52275">
        <ele>411</ele>
        <time>2015-11-01T10:46:52Z</time>
      </trkpt>
      <trkpt lat="44.99412" lon="4.52263">
        <ele>410</ele>
        <time>2015-11-01T10:47:00Z</time>
      </trkpt>
      <trkpt lat="44.99412" lon="4.52259">
        <ele>411</ele>
        <time>2015-11-01T10:47:03Z</time>
      </trkpt>
      <trkpt lat="44.99412" lon="4.52243">
        <ele>410</ele>
        <time>2015-11-01T10:47:14Z</time>
      </trkpt>
      <trkpt lat="44.99413" lon="4.52237">
        <ele>409</ele>
        <time>2015-11-01T10:47:17Z</time>
      </trkpt>
      <trkpt lat="44.9941" lon="4.52208">
        <ele>405</ele>
        <time>2015-11-01T10:47:36Z</time>
      </trkpt>
      <trkpt lat="44.99406" lon="4.52197">
        <ele>404</ele>
        <time>2015-11-01T10:47:42Z</time>
      </trkpt>
      <trkpt lat="44.99409" lon="4.52188">
        <ele>408</ele>
        <time>2015-11-01T10:47:46Z</time>
      </trkpt>
      <trkpt lat="44.99409" lon="4.52176">
        <ele>417</ele>
        <time>2015-11-01T10:47:53Z</time>
      </trkpt>
      <trkpt lat="44.99413" lon="4.52165">
        <ele>421</ele>
        <time>2015-11-01T10:47:59Z</time>
      </trkpt>
      <trkpt lat="44.99412" lon="4.52153">
        <ele>425</ele>
        <time>2015-11-01T10:48:05Z</time>
      </trkpt>
      <trkpt lat="44.99411" lon="4.52141">
        <ele>429</ele>
        <time>2015-11-01T10:48:11Z</time>
      </trkpt>
      <trkpt lat="44.99408" lon="4.5213">
        <ele>429</ele>
        <time>2015-11-01T10:48:17Z</time>
      </trkpt>
      <trkpt lat="44.99409" lon="4.52118">
        <ele>430</ele>
        <time>2015-11-01T10:48:22Z</time>
      </trkpt>
      <trkpt lat="44.9941" lon="4.52109">
        <ele>429</ele>
        <time>2015-11-01T10:48:31Z</time>
      </trkpt>
      <trkpt lat="44.99403" lon="4.52101">
        <ele>428</ele>
        <time>2015-11-01T10:48:37Z</time>
      </trkpt>
      <trkpt lat="44.99399" lon="4.52094">
        <ele>426</ele>
        <time>2015-11-01T10:48:41Z</time>
      </trkpt>
      <trkpt lat="44.99393" lon="4.52085">
        <ele>421</ele>
        <time>2015-11-01T10:48:47Z</time>
      </trkpt>
      <trkpt lat="44.9939" lon="4.52076">
        <ele>412</ele>
        <time>2015-11-01T10:48:53Z</time>
      </trkpt>
      <trkpt lat="44.99386" lon="4.52066">
        <ele>407</ele>
        <time>2015-11-01T10:48:59Z</time>
      </trkpt>
      <trkpt lat="44.99383" lon="4.52059">
        <ele>404</ele>
        <time>2015-11-01T10:49:03Z</time>
      </trkpt>
      <trkpt lat="44.9938" lon="4.52051">
        <ele>402</ele>
        <time>2015-11-01T10:49:07Z</time>
      </trkpt>
      <trkpt lat="44.99375" lon="4.52042">
        <ele>398</ele>
        <time>2015-11-01T10:49:37Z</time>
      </trkpt>
      <trkpt lat="44.99371" lon="4.52031">
        <ele>398</ele>
        <time>2015-11-01T10:49:45Z</time>
      </trkpt>
      <trkpt lat="44.99368" lon="4.52023">
        <ele>397</ele>
        <time>2015-11-01T10:49:51Z</time>
      </trkpt>
      <trkpt lat="44.99363" lon="4.52014">
        <ele>397</ele>
        <time>2015-11-01T10:49:57Z</time>
      </trkpt>
      <trkpt lat="44.99358" lon="4.52007">
        <ele>397</ele>
        <time>2015-11-01T10:50:01Z</time>
      </trkpt>
      <trkpt lat="44.99354" lon="4.51996">
        <ele>396</ele>
        <time>2015-11-01T10:50:09Z</time>
      </trkpt>
      <trkpt lat="44.99354" lon="4.51986">
        <ele>397</ele>
        <time>2015-11-01T10:50:19Z</time>
      </trkpt>
      <trkpt lat="44.99349" lon="4.51976">
        <ele>398</ele>
        <time>2015-11-01T10:50:26Z</time>
      </trkpt>
      <trkpt lat="44.99343" lon="4.51967">
        <ele>398</ele>
        <time>2015-11-01T10:50:33Z</time>
      </trkpt>
      <trkpt lat="44.99339" lon="4.5196">
        <ele>398</ele>
        <time>2015-11-01T10:50:39Z</time>
      </trkpt>
      <trkpt lat="44.99335" lon="4.51953">
        <ele>398</ele>
        <time>2015-11-01T10:50:45Z</time>
      </trkpt>
      <trkpt lat="44.9933" lon="4.51945">
        <ele>397</ele>
        <time>2015-11-01T10:50:49Z</time>
      </trkpt>
      <trkpt lat="44.99326" lon="4.51937">
        <ele>397</ele>
        <time>2015-11-01T10:50:55Z</time>
      </trkpt>
      <trkpt lat="44.99323" lon="4.5193">
        <ele>397</ele>
        <time>2015-11-01T10:50:59Z</time>
      </trkpt>
      <trkpt lat="44.99319" lon="4.51921">
        <ele>397</ele>
        <time>2015-11-01T10:51:04Z</time>
      </trkpt>
      <trkpt lat="44.99316" lon="4.51912">
        <ele>396</ele>
        <time>2015-11-01T10:51:11Z</time>
      </trkpt>
      <trkpt lat="44.99317" lon="4.51903">
        <ele>397</ele>
        <time>2015-11-01T10:51:15Z</time>
      </trkpt>
      <trkpt lat="44.99316" lon="4.51892">
        <ele>396</ele>
        <time>2015-11-01T10:51:19Z</time>
      </trkpt>
      <trkpt lat="44.99318" lon="4.51882">
        <ele>396</ele>
        <time>2015-11-01T10:51:26Z</time>
      </trkpt>
      <trkpt lat="44.99319" lon="4.5187">
        <ele>396</ele>
        <time>2015-11-01T10:51:33Z</time>
      </trkpt>
      <trkpt lat="44.99321" lon="4.5186">
        <ele>396</ele>
        <time>2015-11-01T10:51:37Z</time>
      </trkpt>
      <trkpt lat="44.99321" lon="4.51847">
        <ele>396</ele>
        <time>2015-11-01T10:51:42Z</time>
      </trkpt>
      <trkpt lat="44.99323" lon="4.51835">
        <ele>397</ele>
        <time>2015-11-01T10:51:51Z</time>
      </trkpt>
      <trkpt lat="44.99327" lon="4.51826">
        <ele>397</ele>
        <time>2015-11-01T10:52:00Z</time>
      </trkpt>
      <trkpt lat="44.99331" lon="4.5182">
        <ele>397</ele>
        <time>2015-11-01T10:52:04Z</time>
      </trkpt>
      <trkpt lat="44.99339" lon="4.51811">
        <ele>396</ele>
        <time>2015-11-01T10:52:09Z</time>
      </trkpt>
      <trkpt lat="44.99343" lon="4.51805">
        <ele>396</ele>
        <time>2015-11-01T10:52:14Z</time>
      </trkpt>
      <trkpt lat="44.99351" lon="4.51798">
        <ele>396</ele>
        <time>2015-11-01T10:52:19Z</time>
      </trkpt>
      <trkpt lat="44.9936" lon="4.51792">
        <ele>397</ele>
        <time>2015-11-01T10:52:23Z</time>
      </trkpt>
      <trkpt lat="44.99368" lon="4.51787">
        <ele>397</ele>
        <time>2015-11-01T10:52:27Z</time>
      </trkpt>
      <trkpt lat="44.99377" lon="4.51782">
        <ele>398</ele>
        <time>2015-11-01T10:52:30Z</time>
      </trkpt>
      <trkpt lat="44.99387" lon="4.51776">
        <ele>398</ele>
        <time>2015-11-01T10:52:34Z</time>
      </trkpt>
      <trkpt lat="44.99401" lon="4.51772">
        <ele>398</ele>
        <time>2015-11-01T10:52:39Z</time>
      </trkpt>
      <trkpt lat="44.99408" lon="4.51773">
        <ele>398</ele>
        <time>2015-11-01T10:52:42Z</time>
      </trkpt>
      <trkpt lat="44.99416" lon="4.51775">
        <ele>399</ele>
        <time>2015-11-01T10:52:45Z</time>
      </trkpt>
      <trkpt lat="44.99426" lon="4.51778">
        <ele>399</ele>
        <time>2015-11-01T10:52:49Z</time>
      </trkpt>
      <trkpt lat="44.99436" lon="4.51783">
        <ele>398</ele>
        <time>2015-11-01T10:52:53Z</time>
      </trkpt>
      <trkpt lat="44.99445" lon="4.51789">
        <ele>399</ele>
        <time>2015-11-01T10:52:57Z</time>
      </trkpt>
      <trkpt lat="44.99454" lon="4.51794">
        <ele>399</ele>
        <time>2015-11-01T10:53:01Z</time>
      </trkpt>
      <trkpt lat="44.99465" lon="4.51801">
        <ele>398</ele>
        <time>2015-11-01T10:53:06Z</time>
      </trkpt>
      <trkpt lat="44.99472" lon="4.51804">
        <ele>398</ele>
        <time>2015-11-01T10:53:09Z</time>
      </trkpt>
      <trkpt lat="44.99482" lon="4.51805">
        <ele>399</ele>
        <time>2015-11-01T10:53:13Z</time>
      </trkpt>
      <trkpt lat="44.99493" lon="4.51803">
        <ele>400</ele>
        <time>2015-11-01T10:53:17Z</time>
      </trkpt>
      <trkpt lat="44.995" lon="4.51796">
        <ele>399</ele>
        <time>2015-11-01T10:53:21Z</time>
      </trkpt>
      <trkpt lat="44.99509" lon="4.51787">
        <ele>403</ele>
        <time>2015-11-01T10:53:25Z</time>
      </trkpt>
      <trkpt lat="44.9952" lon="4.51777">
        <ele>408</ele>
        <time>2015-11-01T10:53:29Z</time>
      </trkpt>
      <trkpt lat="44.99529" lon="4.51769">
        <ele>411</ele>
        <time>2015-11-01T10:53:33Z</time>
      </trkpt>
      <trkpt lat="44.99538" lon="4.51762">
        <ele>412</ele>
        <time>2015-11-01T10:53:37Z</time>
      </trkpt>
      <trkpt lat="44.99543" lon="4.51769">
        <ele>415</ele>
        <time>2015-11-01T10:53:41Z</time>
      </trkpt>
      <trkpt lat="44.99552" lon="4.51779">
        <ele>418</ele>
        <time>2015-11-01T10:53:45Z</time>
      </trkpt>
      <trkpt lat="44.99552" lon="4.51769">
        <ele>422</ele>
        <time>2015-11-01T10:53:50Z</time>
      </trkpt>
      <trkpt lat="44.9956" lon="4.51744">
        <ele>424</ele>
        <time>2015-11-01T10:53:55Z</time>
      </trkpt>
      <trkpt lat="44.99565" lon="4.51736">
        <ele>427</ele>
        <time>2015-11-01T10:54:00Z</time>
      </trkpt>
      <trkpt lat="44.99567" lon="4.51719">
        <ele>430</ele>
        <time>2015-11-01T10:54:05Z</time>
      </trkpt>
      <trkpt lat="44.9957" lon="4.51708">
        <ele>432</ele>
        <time>2015-11-01T10:54:09Z</time>
      </trkpt>
      <trkpt lat="44.99567" lon="4.51698">
        <ele>436</ele>
        <time>2015-11-01T10:54:18Z</time>
      </trkpt>
      <trkpt lat="44.99561" lon="4.51692">
        <ele>438</ele>
        <time>2015-11-01T10:54:22Z</time>
      </trkpt>
      <trkpt lat="44.99558" lon="4.5169">
        <ele>439</ele>
        <time>2015-11-01T10:54:24Z</time>
      </trkpt>
      <trkpt lat="44.99558" lon="4.5169">
        <ele>439</ele>
        <time>2015-11-01T10:54:24Z</time>
      </trkpt>
    </trkseg>
  </trk>
</gpx>